<?xml version="1.0" encoding="UTF-8" standalone="no" ?>
<gpx xmlns="http://www.topografix.com/GPX/1/1" xmlns:xsi="http://www.w3.org/2001/XMLSchema-instance" xsi:schemaLocation="http://www.topografix.com/GPX/1/1 http://www.topografix.com/GPX/1/1/gpx.xsd" version="1.1" creator="VisuGPX - https://www.visugpx.com">
  <metadata>
    <name>Ariège J1</name>
    <desc><![CDATA[description à venir]]></desc>
  </metadata>
  <trk>
    <name><![CDATA[Ariège J1]]></name>
    <trkseg>
      <trkpt lat="42.73055" lon="1.54971">
        <ele>937</ele>
        <time>2014-08-11T09:52:54Z</time>
      </trkpt>
      <trkpt lat="42.73055" lon="1.54969">
        <ele>960</ele>
        <time>2014-08-11T09:53:02Z</time>
      </trkpt>
      <trkpt lat="42.73055" lon="1.54969">
        <ele>960</ele>
        <time>2014-08-11T09:53:03Z</time>
      </trkpt>
      <trkpt lat="42.73056" lon="1.54969">
        <ele>941</ele>
        <time>2014-08-11T09:53:06Z</time>
      </trkpt>
      <trkpt lat="42.73059" lon="1.54967">
        <ele>941</ele>
        <time>2014-08-11T09:53:22Z</time>
      </trkpt>
      <trkpt lat="42.73057" lon="1.54972">
        <ele>940</ele>
        <time>2014-08-11T09:53:46Z</time>
      </trkpt>
      <trkpt lat="42.73053" lon="1.54971">
        <ele>940</ele>
        <time>2014-08-11T09:54:01Z</time>
      </trkpt>
      <trkpt lat="42.73052" lon="1.54969">
        <ele>940</ele>
        <time>2014-08-11T09:54:20Z</time>
      </trkpt>
      <trkpt lat="42.73052" lon="1.54971">
        <ele>940</ele>
        <time>2014-08-11T09:54:41Z</time>
      </trkpt>
      <trkpt lat="42.73051" lon="1.54971">
        <ele>940</ele>
        <time>2014-08-11T09:55:01Z</time>
      </trkpt>
      <trkpt lat="42.73048" lon="1.54967">
        <ele>940</ele>
        <time>2014-08-11T09:55:25Z</time>
      </trkpt>
      <trkpt lat="42.73042" lon="1.54955">
        <ele>940</ele>
        <time>2014-08-11T09:55:38Z</time>
      </trkpt>
      <trkpt lat="42.73039" lon="1.54945">
        <ele>941</ele>
        <time>2014-08-11T09:55:50Z</time>
      </trkpt>
      <trkpt lat="42.73045" lon="1.54941">
        <ele>942</ele>
        <time>2014-08-11T09:56:09Z</time>
      </trkpt>
      <trkpt lat="42.7304" lon="1.54942">
        <ele>941</ele>
        <time>2014-08-11T09:56:28Z</time>
      </trkpt>
      <trkpt lat="42.7303" lon="1.54932">
        <ele>943</ele>
        <time>2014-08-11T09:56:40Z</time>
      </trkpt>
      <trkpt lat="42.73024" lon="1.54928">
        <ele>943</ele>
        <time>2014-08-11T09:56:47Z</time>
      </trkpt>
      <trkpt lat="42.73016" lon="1.54932">
        <ele>944</ele>
        <time>2014-08-11T09:56:58Z</time>
      </trkpt>
      <trkpt lat="42.73015" lon="1.54937">
        <ele>944</ele>
        <time>2014-08-11T09:57:01Z</time>
      </trkpt>
      <trkpt lat="42.73014" lon="1.54949">
        <ele>944</ele>
        <time>2014-08-11T09:57:09Z</time>
      </trkpt>
      <trkpt lat="42.73013" lon="1.54967">
        <ele>944</ele>
        <time>2014-08-11T09:57:21Z</time>
      </trkpt>
      <trkpt lat="42.73008" lon="1.54971">
        <ele>944</ele>
        <time>2014-08-11T09:57:34Z</time>
      </trkpt>
      <trkpt lat="42.73007" lon="1.54965">
        <ele>945</ele>
        <time>2014-08-11T09:57:55Z</time>
      </trkpt>
      <trkpt lat="42.73007" lon="1.5497">
        <ele>944</ele>
        <time>2014-08-11T09:58:22Z</time>
      </trkpt>
      <trkpt lat="42.73002" lon="1.54972">
        <ele>945</ele>
        <time>2014-08-11T09:58:55Z</time>
      </trkpt>
      <trkpt lat="42.73002" lon="1.54973">
        <ele>946</ele>
        <time>2014-08-11T09:59:17Z</time>
      </trkpt>
      <trkpt lat="42.72996" lon="1.54972">
        <ele>948</ele>
        <time>2014-08-11T09:59:29Z</time>
      </trkpt>
      <trkpt lat="42.72999" lon="1.54977">
        <ele>949</ele>
        <time>2014-08-11T09:59:43Z</time>
      </trkpt>
      <trkpt lat="42.72997" lon="1.54986">
        <ele>952</ele>
        <time>2014-08-11T09:59:59Z</time>
      </trkpt>
      <trkpt lat="42.72992" lon="1.54991">
        <ele>955</ele>
        <time>2014-08-11T10:00:17Z</time>
      </trkpt>
      <trkpt lat="42.72982" lon="1.54981">
        <ele>957</ele>
        <time>2014-08-11T10:00:33Z</time>
      </trkpt>
      <trkpt lat="42.72977" lon="1.54968">
        <ele>958</ele>
        <time>2014-08-11T10:00:48Z</time>
      </trkpt>
      <trkpt lat="42.72968" lon="1.54957">
        <ele>960</ele>
        <time>2014-08-11T10:01:06Z</time>
      </trkpt>
      <trkpt lat="42.7296" lon="1.54954">
        <ele>962</ele>
        <time>2014-08-11T10:01:21Z</time>
      </trkpt>
      <trkpt lat="42.72956" lon="1.54945">
        <ele>963</ele>
        <time>2014-08-11T10:01:34Z</time>
      </trkpt>
      <trkpt lat="42.72948" lon="1.54935">
        <ele>965</ele>
        <time>2014-08-11T10:01:51Z</time>
      </trkpt>
      <trkpt lat="42.72941" lon="1.54927">
        <ele>966</ele>
        <time>2014-08-11T10:02:04Z</time>
      </trkpt>
      <trkpt lat="42.72931" lon="1.54921">
        <ele>968</ele>
        <time>2014-08-11T10:02:19Z</time>
      </trkpt>
      <trkpt lat="42.72926" lon="1.54908">
        <ele>969</ele>
        <time>2014-08-11T10:02:34Z</time>
      </trkpt>
      <trkpt lat="42.72919" lon="1.54901">
        <ele>970</ele>
        <time>2014-08-11T10:02:52Z</time>
      </trkpt>
      <trkpt lat="42.7291" lon="1.54897">
        <ele>972</ele>
        <time>2014-08-11T10:03:07Z</time>
      </trkpt>
      <trkpt lat="42.729" lon="1.54902">
        <ele>973</ele>
        <time>2014-08-11T10:03:21Z</time>
      </trkpt>
      <trkpt lat="42.72891" lon="1.54901">
        <ele>974</ele>
        <time>2014-08-11T10:03:33Z</time>
      </trkpt>
      <trkpt lat="42.72885" lon="1.54903">
        <ele>977</ele>
        <time>2014-08-11T10:03:46Z</time>
      </trkpt>
      <trkpt lat="42.72878" lon="1.54908">
        <ele>978</ele>
        <time>2014-08-11T10:03:58Z</time>
      </trkpt>
      <trkpt lat="42.72868" lon="1.54911">
        <ele>980</ele>
        <time>2014-08-11T10:04:12Z</time>
      </trkpt>
      <trkpt lat="42.72857" lon="1.54914">
        <ele>982</ele>
        <time>2014-08-11T10:04:27Z</time>
      </trkpt>
      <trkpt lat="42.72849" lon="1.54916">
        <ele>984</ele>
        <time>2014-08-11T10:04:41Z</time>
      </trkpt>
      <trkpt lat="42.72844" lon="1.54923">
        <ele>986</ele>
        <time>2014-08-11T10:04:55Z</time>
      </trkpt>
      <trkpt lat="42.72839" lon="1.54927">
        <ele>988</ele>
        <time>2014-08-11T10:05:08Z</time>
      </trkpt>
      <trkpt lat="42.72833" lon="1.54932">
        <ele>991</ele>
        <time>2014-08-11T10:05:23Z</time>
      </trkpt>
      <trkpt lat="42.72821" lon="1.54937">
        <ele>991</ele>
        <time>2014-08-11T10:05:38Z</time>
      </trkpt>
      <trkpt lat="42.72809" lon="1.54944">
        <ele>992</ele>
        <time>2014-08-11T10:05:52Z</time>
      </trkpt>
      <trkpt lat="42.72797" lon="1.54944">
        <ele>993</ele>
        <time>2014-08-11T10:06:06Z</time>
      </trkpt>
      <trkpt lat="42.72788" lon="1.54943">
        <ele>995</ele>
        <time>2014-08-11T10:06:19Z</time>
      </trkpt>
      <trkpt lat="42.72783" lon="1.54943">
        <ele>995</ele>
        <time>2014-08-11T10:06:25Z</time>
      </trkpt>
      <trkpt lat="42.72773" lon="1.54943">
        <ele>995</ele>
        <time>2014-08-11T10:06:38Z</time>
      </trkpt>
      <trkpt lat="42.72762" lon="1.54939">
        <ele>997</ele>
        <time>2014-08-11T10:06:52Z</time>
      </trkpt>
      <trkpt lat="42.72749" lon="1.54941">
        <ele>997</ele>
        <time>2014-08-11T10:07:06Z</time>
      </trkpt>
      <trkpt lat="42.72738" lon="1.5494">
        <ele>999</ele>
        <time>2014-08-11T10:07:21Z</time>
      </trkpt>
      <trkpt lat="42.72728" lon="1.54937">
        <ele>1001</ele>
        <time>2014-08-11T10:07:37Z</time>
      </trkpt>
      <trkpt lat="42.72718" lon="1.5494">
        <ele>1002</ele>
        <time>2014-08-11T10:07:51Z</time>
      </trkpt>
      <trkpt lat="42.72708" lon="1.54942">
        <ele>1005</ele>
        <time>2014-08-11T10:08:05Z</time>
      </trkpt>
      <trkpt lat="42.72701" lon="1.54945">
        <ele>1008</ele>
        <time>2014-08-11T10:08:19Z</time>
      </trkpt>
      <trkpt lat="42.72693" lon="1.54949">
        <ele>1009</ele>
        <time>2014-08-11T10:08:32Z</time>
      </trkpt>
      <trkpt lat="42.72685" lon="1.54954">
        <ele>1011</ele>
        <time>2014-08-11T10:08:49Z</time>
      </trkpt>
      <trkpt lat="42.72673" lon="1.54956">
        <ele>1012</ele>
        <time>2014-08-11T10:09:04Z</time>
      </trkpt>
      <trkpt lat="42.72664" lon="1.54956">
        <ele>1015</ele>
        <time>2014-08-11T10:09:16Z</time>
      </trkpt>
      <trkpt lat="42.72648" lon="1.5496">
        <ele>1016</ele>
        <time>2014-08-11T10:09:32Z</time>
      </trkpt>
      <trkpt lat="42.7264" lon="1.54957">
        <ele>1018</ele>
        <time>2014-08-11T10:09:46Z</time>
      </trkpt>
      <trkpt lat="42.72633" lon="1.54952">
        <ele>1020</ele>
        <time>2014-08-11T10:09:59Z</time>
      </trkpt>
      <trkpt lat="42.72626" lon="1.54944">
        <ele>1021</ele>
        <time>2014-08-11T10:10:12Z</time>
      </trkpt>
      <trkpt lat="42.72618" lon="1.54937">
        <ele>1022</ele>
        <time>2014-08-11T10:10:27Z</time>
      </trkpt>
      <trkpt lat="42.72612" lon="1.54935">
        <ele>1024</ele>
        <time>2014-08-11T10:10:40Z</time>
      </trkpt>
      <trkpt lat="42.72603" lon="1.54935">
        <ele>1026</ele>
        <time>2014-08-11T10:10:53Z</time>
      </trkpt>
      <trkpt lat="42.72596" lon="1.54932">
        <ele>1027</ele>
        <time>2014-08-11T10:11:06Z</time>
      </trkpt>
      <trkpt lat="42.7259" lon="1.54929">
        <ele>1028</ele>
        <time>2014-08-11T10:11:16Z</time>
      </trkpt>
      <trkpt lat="42.7258" lon="1.54925">
        <ele>1030</ele>
        <time>2014-08-11T10:11:31Z</time>
      </trkpt>
      <trkpt lat="42.72572" lon="1.54925">
        <ele>1032</ele>
        <time>2014-08-11T10:11:43Z</time>
      </trkpt>
      <trkpt lat="42.72562" lon="1.5492">
        <ele>1034</ele>
        <time>2014-08-11T10:11:58Z</time>
      </trkpt>
      <trkpt lat="42.72553" lon="1.5492">
        <ele>1035</ele>
        <time>2014-08-11T10:12:11Z</time>
      </trkpt>
      <trkpt lat="42.72544" lon="1.5492">
        <ele>1037</ele>
        <time>2014-08-11T10:12:26Z</time>
      </trkpt>
      <trkpt lat="42.72535" lon="1.54917">
        <ele>1039</ele>
        <time>2014-08-11T10:12:39Z</time>
      </trkpt>
      <trkpt lat="42.72529" lon="1.54916">
        <ele>1042</ele>
        <time>2014-08-11T10:12:55Z</time>
      </trkpt>
      <trkpt lat="42.72523" lon="1.54907">
        <ele>1045</ele>
        <time>2014-08-11T10:13:10Z</time>
      </trkpt>
      <trkpt lat="42.72514" lon="1.54906">
        <ele>1046</ele>
        <time>2014-08-11T10:13:21Z</time>
      </trkpt>
      <trkpt lat="42.72505" lon="1.54906">
        <ele>1047</ele>
        <time>2014-08-11T10:13:34Z</time>
      </trkpt>
      <trkpt lat="42.72497" lon="1.54906">
        <ele>1049</ele>
        <time>2014-08-11T10:13:50Z</time>
      </trkpt>
      <trkpt lat="42.72488" lon="1.54906">
        <ele>1052</ele>
        <time>2014-08-11T10:14:03Z</time>
      </trkpt>
      <trkpt lat="42.72479" lon="1.54909">
        <ele>1055</ele>
        <time>2014-08-11T10:14:18Z</time>
      </trkpt>
      <trkpt lat="42.72471" lon="1.54913">
        <ele>1057</ele>
        <time>2014-08-11T10:14:34Z</time>
      </trkpt>
      <trkpt lat="42.72465" lon="1.54916">
        <ele>1059</ele>
        <time>2014-08-11T10:14:47Z</time>
      </trkpt>
      <trkpt lat="42.7246" lon="1.54929">
        <ele>1061</ele>
        <time>2014-08-11T10:15:00Z</time>
      </trkpt>
      <trkpt lat="42.72451" lon="1.54931">
        <ele>1064</ele>
        <time>2014-08-11T10:15:17Z</time>
      </trkpt>
      <trkpt lat="42.72445" lon="1.54939">
        <ele>1065</ele>
        <time>2014-08-11T10:15:28Z</time>
      </trkpt>
      <trkpt lat="42.72435" lon="1.5495">
        <ele>1067</ele>
        <time>2014-08-11T10:15:43Z</time>
      </trkpt>
      <trkpt lat="42.72425" lon="1.54959">
        <ele>1069</ele>
        <time>2014-08-11T10:15:57Z</time>
      </trkpt>
      <trkpt lat="42.72418" lon="1.54965">
        <ele>1071</ele>
        <time>2014-08-11T10:16:09Z</time>
      </trkpt>
      <trkpt lat="42.72413" lon="1.54972">
        <ele>1072</ele>
        <time>2014-08-11T10:16:20Z</time>
      </trkpt>
      <trkpt lat="42.72409" lon="1.54979">
        <ele>1074</ele>
        <time>2014-08-11T10:16:34Z</time>
      </trkpt>
      <trkpt lat="42.72405" lon="1.54987">
        <ele>1076</ele>
        <time>2014-08-11T10:16:46Z</time>
      </trkpt>
      <trkpt lat="42.72401" lon="1.54996">
        <ele>1078</ele>
        <time>2014-08-11T10:16:58Z</time>
      </trkpt>
      <trkpt lat="42.724" lon="1.55005">
        <ele>1079</ele>
        <time>2014-08-11T10:17:09Z</time>
      </trkpt>
      <trkpt lat="42.72399" lon="1.55016">
        <ele>1081</ele>
        <time>2014-08-11T10:17:23Z</time>
      </trkpt>
      <trkpt lat="42.724" lon="1.55027">
        <ele>1083</ele>
        <time>2014-08-11T10:17:36Z</time>
      </trkpt>
      <trkpt lat="42.72398" lon="1.55032">
        <ele>1084</ele>
        <time>2014-08-11T10:17:47Z</time>
      </trkpt>
      <trkpt lat="42.72393" lon="1.55039">
        <ele>1086</ele>
        <time>2014-08-11T10:18:03Z</time>
      </trkpt>
      <trkpt lat="42.72388" lon="1.55045">
        <ele>1088</ele>
        <time>2014-08-11T10:18:16Z</time>
      </trkpt>
      <trkpt lat="42.72384" lon="1.55054">
        <ele>1090</ele>
        <time>2014-08-11T10:18:29Z</time>
      </trkpt>
      <trkpt lat="42.72378" lon="1.55063">
        <ele>1091</ele>
        <time>2014-08-11T10:18:42Z</time>
      </trkpt>
      <trkpt lat="42.72373" lon="1.55071">
        <ele>1093</ele>
        <time>2014-08-11T10:18:52Z</time>
      </trkpt>
      <trkpt lat="42.72377" lon="1.55071">
        <ele>1093</ele>
        <time>2014-08-11T10:19:05Z</time>
      </trkpt>
      <trkpt lat="42.72381" lon="1.55066">
        <ele>1094</ele>
        <time>2014-08-11T10:19:16Z</time>
      </trkpt>
      <trkpt lat="42.72386" lon="1.55062">
        <ele>1096</ele>
        <time>2014-08-11T10:19:29Z</time>
      </trkpt>
      <trkpt lat="42.72393" lon="1.55056">
        <ele>1097</ele>
        <time>2014-08-11T10:19:41Z</time>
      </trkpt>
      <trkpt lat="42.72391" lon="1.55063">
        <ele>1098</ele>
        <time>2014-08-11T10:19:53Z</time>
      </trkpt>
      <trkpt lat="42.72387" lon="1.55073">
        <ele>1100</ele>
        <time>2014-08-11T10:20:07Z</time>
      </trkpt>
      <trkpt lat="42.72383" lon="1.55084">
        <ele>1101</ele>
        <time>2014-08-11T10:20:19Z</time>
      </trkpt>
      <trkpt lat="42.72379" lon="1.55091">
        <ele>1104</ele>
        <time>2014-08-11T10:20:31Z</time>
      </trkpt>
      <trkpt lat="42.72375" lon="1.55098">
        <ele>1106</ele>
        <time>2014-08-11T10:20:43Z</time>
      </trkpt>
      <trkpt lat="42.7237" lon="1.55107">
        <ele>1107</ele>
        <time>2014-08-11T10:20:57Z</time>
      </trkpt>
      <trkpt lat="42.72366" lon="1.55115">
        <ele>1109</ele>
        <time>2014-08-11T10:21:10Z</time>
      </trkpt>
      <trkpt lat="42.72364" lon="1.55122">
        <ele>1110</ele>
        <time>2014-08-11T10:21:22Z</time>
      </trkpt>
      <trkpt lat="42.72361" lon="1.55131">
        <ele>1112</ele>
        <time>2014-08-11T10:21:35Z</time>
      </trkpt>
      <trkpt lat="42.72358" lon="1.55138">
        <ele>1114</ele>
        <time>2014-08-11T10:21:49Z</time>
      </trkpt>
      <trkpt lat="42.72354" lon="1.5515">
        <ele>1115</ele>
        <time>2014-08-11T10:22:03Z</time>
      </trkpt>
      <trkpt lat="42.72352" lon="1.55158">
        <ele>1117</ele>
        <time>2014-08-11T10:22:15Z</time>
      </trkpt>
      <trkpt lat="42.72346" lon="1.55162">
        <ele>1119</ele>
        <time>2014-08-11T10:22:28Z</time>
      </trkpt>
      <trkpt lat="42.72338" lon="1.55166">
        <ele>1121</ele>
        <time>2014-08-11T10:22:41Z</time>
      </trkpt>
      <trkpt lat="42.72334" lon="1.55175">
        <ele>1122</ele>
        <time>2014-08-11T10:22:54Z</time>
      </trkpt>
      <trkpt lat="42.72331" lon="1.55182">
        <ele>1123</ele>
        <time>2014-08-11T10:23:11Z</time>
      </trkpt>
      <trkpt lat="42.72324" lon="1.55192">
        <ele>1124</ele>
        <time>2014-08-11T10:23:36Z</time>
      </trkpt>
      <trkpt lat="42.72321" lon="1.55205">
        <ele>1127</ele>
        <time>2014-08-11T10:23:51Z</time>
      </trkpt>
      <trkpt lat="42.72315" lon="1.55209">
        <ele>1129</ele>
        <time>2014-08-11T10:24:05Z</time>
      </trkpt>
      <trkpt lat="42.72307" lon="1.55212">
        <ele>1131</ele>
        <time>2014-08-11T10:24:19Z</time>
      </trkpt>
      <trkpt lat="42.72299" lon="1.55218">
        <ele>1132</ele>
        <time>2014-08-11T10:24:33Z</time>
      </trkpt>
      <trkpt lat="42.7229" lon="1.55223">
        <ele>1134</ele>
        <time>2014-08-11T10:24:46Z</time>
      </trkpt>
      <trkpt lat="42.72283" lon="1.55226">
        <ele>1135</ele>
        <time>2014-08-11T10:24:58Z</time>
      </trkpt>
      <trkpt lat="42.72277" lon="1.55229">
        <ele>1137</ele>
        <time>2014-08-11T10:25:11Z</time>
      </trkpt>
      <trkpt lat="42.72271" lon="1.55236">
        <ele>1139</ele>
        <time>2014-08-11T10:25:26Z</time>
      </trkpt>
      <trkpt lat="42.72265" lon="1.55241">
        <ele>1141</ele>
        <time>2014-08-11T10:25:41Z</time>
      </trkpt>
      <trkpt lat="42.72258" lon="1.55247">
        <ele>1143</ele>
        <time>2014-08-11T10:25:55Z</time>
      </trkpt>
      <trkpt lat="42.72252" lon="1.55253">
        <ele>1144</ele>
        <time>2014-08-11T10:26:08Z</time>
      </trkpt>
      <trkpt lat="42.72246" lon="1.55259">
        <ele>1145</ele>
        <time>2014-08-11T10:26:21Z</time>
      </trkpt>
      <trkpt lat="42.72237" lon="1.55266">
        <ele>1147</ele>
        <time>2014-08-11T10:26:39Z</time>
      </trkpt>
      <trkpt lat="42.7223" lon="1.55274">
        <ele>1149</ele>
        <time>2014-08-11T10:26:53Z</time>
      </trkpt>
      <trkpt lat="42.72224" lon="1.5528">
        <ele>1151</ele>
        <time>2014-08-11T10:27:05Z</time>
      </trkpt>
      <trkpt lat="42.72217" lon="1.55287">
        <ele>1152</ele>
        <time>2014-08-11T10:27:17Z</time>
      </trkpt>
      <trkpt lat="42.72213" lon="1.55293">
        <ele>1154</ele>
        <time>2014-08-11T10:27:28Z</time>
      </trkpt>
      <trkpt lat="42.72209" lon="1.553">
        <ele>1155</ele>
        <time>2014-08-11T10:27:40Z</time>
      </trkpt>
      <trkpt lat="42.72204" lon="1.55305">
        <ele>1156</ele>
        <time>2014-08-11T10:27:54Z</time>
      </trkpt>
      <trkpt lat="42.72203" lon="1.55305">
        <ele>1156</ele>
        <time>2014-08-11T10:28:03Z</time>
      </trkpt>
      <trkpt lat="42.72202" lon="1.55306">
        <ele>1155</ele>
        <time>2014-08-11T10:28:18Z</time>
      </trkpt>
      <trkpt lat="42.72206" lon="1.55307">
        <ele>1157</ele>
        <time>2014-08-11T10:28:39Z</time>
      </trkpt>
      <trkpt lat="42.72209" lon="1.55311">
        <ele>1157</ele>
        <time>2014-08-11T10:29:00Z</time>
      </trkpt>
      <trkpt lat="42.72204" lon="1.55314">
        <ele>1157</ele>
        <time>2014-08-11T10:29:26Z</time>
      </trkpt>
      <trkpt lat="42.72199" lon="1.55316">
        <ele>1157</ele>
        <time>2014-08-11T10:29:47Z</time>
      </trkpt>
      <trkpt lat="42.72193" lon="1.55319">
        <ele>1158</ele>
        <time>2014-08-11T10:30:00Z</time>
      </trkpt>
      <trkpt lat="42.72189" lon="1.55321">
        <ele>1159</ele>
        <time>2014-08-11T10:30:12Z</time>
      </trkpt>
      <trkpt lat="42.72184" lon="1.55325">
        <ele>1160</ele>
        <time>2014-08-11T10:30:23Z</time>
      </trkpt>
      <trkpt lat="42.7218" lon="1.5533">
        <ele>1162</ele>
        <time>2014-08-11T10:30:35Z</time>
      </trkpt>
      <trkpt lat="42.72175" lon="1.55335">
        <ele>1164</ele>
        <time>2014-08-11T10:30:50Z</time>
      </trkpt>
      <trkpt lat="42.72175" lon="1.55341">
        <ele>1165</ele>
        <time>2014-08-11T10:31:03Z</time>
      </trkpt>
      <trkpt lat="42.72178" lon="1.55347">
        <ele>1167</ele>
        <time>2014-08-11T10:31:15Z</time>
      </trkpt>
      <trkpt lat="42.72171" lon="1.55345">
        <ele>1168</ele>
        <time>2014-08-11T10:31:30Z</time>
      </trkpt>
      <trkpt lat="42.72165" lon="1.55346">
        <ele>1170</ele>
        <time>2014-08-11T10:31:41Z</time>
      </trkpt>
      <trkpt lat="42.72161" lon="1.55355">
        <ele>1171</ele>
        <time>2014-08-11T10:31:56Z</time>
      </trkpt>
      <trkpt lat="42.7216" lon="1.55363">
        <ele>1174</ele>
        <time>2014-08-11T10:32:09Z</time>
      </trkpt>
      <trkpt lat="42.72158" lon="1.55369">
        <ele>1175</ele>
        <time>2014-08-11T10:32:23Z</time>
      </trkpt>
      <trkpt lat="42.72153" lon="1.55375">
        <ele>1176</ele>
        <time>2014-08-11T10:32:36Z</time>
      </trkpt>
      <trkpt lat="42.72146" lon="1.55376">
        <ele>1177</ele>
        <time>2014-08-11T10:32:50Z</time>
      </trkpt>
      <trkpt lat="42.72142" lon="1.55384">
        <ele>1179</ele>
        <time>2014-08-11T10:33:01Z</time>
      </trkpt>
      <trkpt lat="42.72138" lon="1.55396">
        <ele>1180</ele>
        <time>2014-08-11T10:33:15Z</time>
      </trkpt>
      <trkpt lat="42.72132" lon="1.55401">
        <ele>1182</ele>
        <time>2014-08-11T10:33:27Z</time>
      </trkpt>
      <trkpt lat="42.72126" lon="1.55406">
        <ele>1183</ele>
        <time>2014-08-11T10:33:42Z</time>
      </trkpt>
      <trkpt lat="42.7212" lon="1.55412">
        <ele>1184</ele>
        <time>2014-08-11T10:33:54Z</time>
      </trkpt>
      <trkpt lat="42.72113" lon="1.55416">
        <ele>1187</ele>
        <time>2014-08-11T10:34:09Z</time>
      </trkpt>
      <trkpt lat="42.72104" lon="1.55418">
        <ele>1188</ele>
        <time>2014-08-11T10:34:22Z</time>
      </trkpt>
      <trkpt lat="42.72096" lon="1.55422">
        <ele>1190</ele>
        <time>2014-08-11T10:34:35Z</time>
      </trkpt>
      <trkpt lat="42.72089" lon="1.55425">
        <ele>1192</ele>
        <time>2014-08-11T10:34:48Z</time>
      </trkpt>
      <trkpt lat="42.7208" lon="1.55429">
        <ele>1194</ele>
        <time>2014-08-11T10:35:02Z</time>
      </trkpt>
      <trkpt lat="42.72071" lon="1.55431">
        <ele>1195</ele>
        <time>2014-08-11T10:35:15Z</time>
      </trkpt>
      <trkpt lat="42.72062" lon="1.55433">
        <ele>1196</ele>
        <time>2014-08-11T10:35:26Z</time>
      </trkpt>
      <trkpt lat="42.72056" lon="1.55436">
        <ele>1198</ele>
        <time>2014-08-11T10:35:39Z</time>
      </trkpt>
      <trkpt lat="42.72046" lon="1.55439">
        <ele>1200</ele>
        <time>2014-08-11T10:35:51Z</time>
      </trkpt>
      <trkpt lat="42.72037" lon="1.55441">
        <ele>1202</ele>
        <time>2014-08-11T10:36:03Z</time>
      </trkpt>
      <trkpt lat="42.72029" lon="1.55444">
        <ele>1203</ele>
        <time>2014-08-11T10:36:18Z</time>
      </trkpt>
      <trkpt lat="42.72022" lon="1.55449">
        <ele>1206</ele>
        <time>2014-08-11T10:36:34Z</time>
      </trkpt>
      <trkpt lat="42.72017" lon="1.55454">
        <ele>1207</ele>
        <time>2014-08-11T10:36:44Z</time>
      </trkpt>
      <trkpt lat="42.72009" lon="1.55456">
        <ele>1209</ele>
        <time>2014-08-11T10:36:57Z</time>
      </trkpt>
      <trkpt lat="42.71998" lon="1.5546">
        <ele>1211</ele>
        <time>2014-08-11T10:37:11Z</time>
      </trkpt>
      <trkpt lat="42.71988" lon="1.55462">
        <ele>1212</ele>
        <time>2014-08-11T10:37:23Z</time>
      </trkpt>
      <trkpt lat="42.7198" lon="1.55463">
        <ele>1214</ele>
        <time>2014-08-11T10:37:35Z</time>
      </trkpt>
      <trkpt lat="42.71971" lon="1.55464">
        <ele>1215</ele>
        <time>2014-08-11T10:37:47Z</time>
      </trkpt>
      <trkpt lat="42.71963" lon="1.55467">
        <ele>1217</ele>
        <time>2014-08-11T10:38:00Z</time>
      </trkpt>
      <trkpt lat="42.71956" lon="1.5547">
        <ele>1218</ele>
        <time>2014-08-11T10:38:12Z</time>
      </trkpt>
      <trkpt lat="42.71949" lon="1.55476">
        <ele>1221</ele>
        <time>2014-08-11T10:38:27Z</time>
      </trkpt>
      <trkpt lat="42.71942" lon="1.55481">
        <ele>1222</ele>
        <time>2014-08-11T10:38:39Z</time>
      </trkpt>
      <trkpt lat="42.71929" lon="1.55484">
        <ele>1224</ele>
        <time>2014-08-11T10:38:53Z</time>
      </trkpt>
      <trkpt lat="42.71921" lon="1.55484">
        <ele>1226</ele>
        <time>2014-08-11T10:39:06Z</time>
      </trkpt>
      <trkpt lat="42.7191" lon="1.55482">
        <ele>1228</ele>
        <time>2014-08-11T10:39:21Z</time>
      </trkpt>
      <trkpt lat="42.71898" lon="1.55483">
        <ele>1230</ele>
        <time>2014-08-11T10:39:33Z</time>
      </trkpt>
      <trkpt lat="42.71889" lon="1.55485">
        <ele>1232</ele>
        <time>2014-08-11T10:39:46Z</time>
      </trkpt>
      <trkpt lat="42.7188" lon="1.55483">
        <ele>1233</ele>
        <time>2014-08-11T10:40:00Z</time>
      </trkpt>
      <trkpt lat="42.71873" lon="1.55482">
        <ele>1235</ele>
        <time>2014-08-11T10:40:14Z</time>
      </trkpt>
      <trkpt lat="42.71865" lon="1.55481">
        <ele>1236</ele>
        <time>2014-08-11T10:40:27Z</time>
      </trkpt>
      <trkpt lat="42.71857" lon="1.55481">
        <ele>1238</ele>
        <time>2014-08-11T10:40:39Z</time>
      </trkpt>
      <trkpt lat="42.71858" lon="1.5549">
        <ele>1240</ele>
        <time>2014-08-11T10:40:50Z</time>
      </trkpt>
      <trkpt lat="42.71859" lon="1.5549">
        <ele>1240</ele>
        <time>2014-08-11T10:40:53Z</time>
      </trkpt>
      <trkpt lat="42.71863" lon="1.55494">
        <ele>1241</ele>
        <time>2014-08-11T10:41:04Z</time>
      </trkpt>
      <trkpt lat="42.71865" lon="1.55498">
        <ele>1242</ele>
        <time>2014-08-11T10:41:18Z</time>
      </trkpt>
      <trkpt lat="42.71869" lon="1.55501">
        <ele>1244</ele>
        <time>2014-08-11T10:41:29Z</time>
      </trkpt>
      <trkpt lat="42.71868" lon="1.55507">
        <ele>1246</ele>
        <time>2014-08-11T10:41:45Z</time>
      </trkpt>
      <trkpt lat="42.71862" lon="1.55511">
        <ele>1247</ele>
        <time>2014-08-11T10:42:00Z</time>
      </trkpt>
      <trkpt lat="42.71853" lon="1.55511">
        <ele>1249</ele>
        <time>2014-08-11T10:42:14Z</time>
      </trkpt>
      <trkpt lat="42.71845" lon="1.55511">
        <ele>1250</ele>
        <time>2014-08-11T10:42:26Z</time>
      </trkpt>
      <trkpt lat="42.71835" lon="1.55512">
        <ele>1252</ele>
        <time>2014-08-11T10:42:37Z</time>
      </trkpt>
      <trkpt lat="42.71827" lon="1.55512">
        <ele>1253</ele>
        <time>2014-08-11T10:42:49Z</time>
      </trkpt>
      <trkpt lat="42.71818" lon="1.55511">
        <ele>1255</ele>
        <time>2014-08-11T10:43:02Z</time>
      </trkpt>
      <trkpt lat="42.71808" lon="1.55514">
        <ele>1257</ele>
        <time>2014-08-11T10:43:16Z</time>
      </trkpt>
      <trkpt lat="42.71798" lon="1.55512">
        <ele>1258</ele>
        <time>2014-08-11T10:43:30Z</time>
      </trkpt>
      <trkpt lat="42.71784" lon="1.55513">
        <ele>1260</ele>
        <time>2014-08-11T10:43:45Z</time>
      </trkpt>
      <trkpt lat="42.71785" lon="1.55508">
        <ele>1310</ele>
      </trkpt>
      <trkpt lat="42.71704" lon="1.55363">
        <ele>1345</ele>
      </trkpt>
      <trkpt lat="42.71659" lon="1.55449">
        <ele>1361</ele>
      </trkpt>
      <trkpt lat="42.71642" lon="1.55504">
        <ele>1367</ele>
      </trkpt>
      <trkpt lat="42.7153" lon="1.55603">
        <ele>1421</ele>
      </trkpt>
      <trkpt lat="42.7153" lon="1.55622">
        <ele>1424</ele>
      </trkpt>
      <trkpt lat="42.71472" lon="1.55592">
        <ele>1429</ele>
      </trkpt>
      <trkpt lat="42.71396" lon="1.55696">
        <ele>1464</ele>
      </trkpt>
      <trkpt lat="42.71298" lon="1.55722">
        <ele>1474</ele>
      </trkpt>
      <trkpt lat="42.71173" lon="1.55821">
        <ele>1476</ele>
      </trkpt>
      <trkpt lat="42.71114" lon="1.55846">
        <ele>1494</ele>
      </trkpt>
      <trkpt lat="42.70972" lon="1.55988">
        <ele>1501</ele>
      </trkpt>
      <trkpt lat="42.7091" lon="1.56105">
        <ele>1506</ele>
      </trkpt>
      <trkpt lat="42.70869" lon="1.56087">
        <ele>1507</ele>
      </trkpt>
      <trkpt lat="42.70856" lon="1.56106">
        <ele>1508</ele>
      </trkpt>
      <trkpt lat="42.70851" lon="1.56116">
        <ele>1507</ele>
        <time>2014-08-11T11:35:05Z</time>
      </trkpt>
      <trkpt lat="42.70851" lon="1.56121">
        <ele>1508</ele>
        <time>2014-08-11T11:35:12Z</time>
      </trkpt>
      <trkpt lat="42.70848" lon="1.56131">
        <ele>1509</ele>
        <time>2014-08-11T11:35:24Z</time>
      </trkpt>
      <trkpt lat="42.70846" lon="1.56139">
        <ele>1510</ele>
        <time>2014-08-11T11:35:31Z</time>
      </trkpt>
      <trkpt lat="42.70844" lon="1.56141">
        <ele>1511</ele>
        <time>2014-08-11T11:35:34Z</time>
      </trkpt>
      <trkpt lat="42.70843" lon="1.56142">
        <ele>1509</ele>
        <time>2014-08-11T11:35:35Z</time>
      </trkpt>
      <trkpt lat="42.70842" lon="1.56143">
        <ele>1511</ele>
        <time>2014-08-11T11:35:36Z</time>
      </trkpt>
      <trkpt lat="42.70838" lon="1.56148">
        <ele>1511</ele>
        <time>2014-08-11T11:35:42Z</time>
      </trkpt>
      <trkpt lat="42.70837" lon="1.56152">
        <ele>1512</ele>
        <time>2014-08-11T11:35:47Z</time>
      </trkpt>
      <trkpt lat="42.7083" lon="1.56163">
        <ele>1513</ele>
        <time>2014-08-11T11:36:00Z</time>
      </trkpt>
      <trkpt lat="42.70823" lon="1.5617">
        <ele>1516</ele>
        <time>2014-08-11T11:36:14Z</time>
      </trkpt>
      <trkpt lat="42.70823" lon="1.56171">
        <ele>1515</ele>
        <time>2014-08-11T11:36:15Z</time>
      </trkpt>
      <trkpt lat="42.7082" lon="1.56182">
        <ele>1517</ele>
        <time>2014-08-11T11:36:29Z</time>
      </trkpt>
      <trkpt lat="42.70818" lon="1.5619">
        <ele>1518</ele>
        <time>2014-08-11T11:36:41Z</time>
      </trkpt>
      <trkpt lat="42.70816" lon="1.56192">
        <ele>1519</ele>
        <time>2014-08-11T11:36:47Z</time>
      </trkpt>
      <trkpt lat="42.7081" lon="1.56198">
        <ele>1521</ele>
        <time>2014-08-11T11:37:01Z</time>
      </trkpt>
      <trkpt lat="42.70801" lon="1.56205">
        <ele>1522</ele>
        <time>2014-08-11T11:37:15Z</time>
      </trkpt>
      <trkpt lat="42.70802" lon="1.56206">
        <ele>1523</ele>
        <time>2014-08-11T11:37:17Z</time>
      </trkpt>
      <trkpt lat="42.70799" lon="1.56217">
        <ele>1525</ele>
        <time>2014-08-11T11:37:30Z</time>
      </trkpt>
      <trkpt lat="42.70795" lon="1.56226">
        <ele>1524</ele>
        <time>2014-08-11T11:37:38Z</time>
      </trkpt>
      <trkpt lat="42.70787" lon="1.56236">
        <ele>1524</ele>
        <time>2014-08-11T11:37:49Z</time>
      </trkpt>
      <trkpt lat="42.70779" lon="1.56243">
        <ele>1524</ele>
        <time>2014-08-11T11:38:04Z</time>
      </trkpt>
      <trkpt lat="42.70771" lon="1.5625">
        <ele>1526</ele>
        <time>2014-08-11T11:38:15Z</time>
      </trkpt>
      <trkpt lat="42.70769" lon="1.56252">
        <ele>1523</ele>
        <time>2014-08-11T11:38:18Z</time>
      </trkpt>
      <trkpt lat="42.70769" lon="1.56252">
        <ele>1525</ele>
        <time>2014-08-11T11:38:19Z</time>
      </trkpt>
      <trkpt lat="42.70758" lon="1.56261">
        <ele>1525</ele>
        <time>2014-08-11T11:38:32Z</time>
      </trkpt>
      <trkpt lat="42.70753" lon="1.56268">
        <ele>1525</ele>
        <time>2014-08-11T11:38:42Z</time>
      </trkpt>
      <trkpt lat="42.70746" lon="1.56275">
        <ele>1524</ele>
        <time>2014-08-11T11:38:54Z</time>
      </trkpt>
      <trkpt lat="42.70742" lon="1.56277">
        <ele>1524</ele>
        <time>2014-08-11T11:38:58Z</time>
      </trkpt>
      <trkpt lat="42.70741" lon="1.56277">
        <ele>1524</ele>
        <time>2014-08-11T11:38:59Z</time>
      </trkpt>
      <trkpt lat="42.70738" lon="1.56279">
        <ele>1525</ele>
        <time>2014-08-11T11:39:02Z</time>
      </trkpt>
      <trkpt lat="42.70734" lon="1.56282">
        <ele>1524</ele>
        <time>2014-08-11T11:39:06Z</time>
      </trkpt>
      <trkpt lat="42.70728" lon="1.56288">
        <ele>1524</ele>
        <time>2014-08-11T11:39:20Z</time>
      </trkpt>
      <trkpt lat="42.7072" lon="1.56295">
        <ele>1524</ele>
        <time>2014-08-11T11:39:31Z</time>
      </trkpt>
      <trkpt lat="42.7071" lon="1.56304">
        <ele>1524</ele>
        <time>2014-08-11T11:39:45Z</time>
      </trkpt>
      <trkpt lat="42.70708" lon="1.56306">
        <ele>1525</ele>
        <time>2014-08-11T11:39:48Z</time>
      </trkpt>
      <trkpt lat="42.70703" lon="1.56313">
        <ele>1526</ele>
        <time>2014-08-11T11:39:58Z</time>
      </trkpt>
      <trkpt lat="42.70695" lon="1.56322">
        <ele>1526</ele>
        <time>2014-08-11T11:40:12Z</time>
      </trkpt>
      <trkpt lat="42.70687" lon="1.56329">
        <ele>1526</ele>
        <time>2014-08-11T11:40:26Z</time>
      </trkpt>
      <trkpt lat="42.70682" lon="1.56337">
        <ele>1526</ele>
        <time>2014-08-11T11:40:38Z</time>
      </trkpt>
      <trkpt lat="42.70673" lon="1.56345">
        <ele>1527</ele>
        <time>2014-08-11T11:40:49Z</time>
      </trkpt>
      <trkpt lat="42.7067" lon="1.56348">
        <ele>1528</ele>
        <time>2014-08-11T11:40:55Z</time>
      </trkpt>
      <trkpt lat="42.70666" lon="1.56354">
        <ele>1528</ele>
        <time>2014-08-11T11:41:08Z</time>
      </trkpt>
      <trkpt lat="42.70663" lon="1.56357">
        <ele>1527</ele>
        <time>2014-08-11T11:41:12Z</time>
      </trkpt>
      <trkpt lat="42.70663" lon="1.56357">
        <ele>1529</ele>
        <time>2014-08-11T11:41:13Z</time>
      </trkpt>
      <trkpt lat="42.70661" lon="1.56361">
        <ele>1531</ele>
        <time>2014-08-11T11:41:20Z</time>
      </trkpt>
      <trkpt lat="42.7066" lon="1.56361">
        <ele>1529</ele>
        <time>2014-08-11T11:41:21Z</time>
      </trkpt>
      <trkpt lat="42.70653" lon="1.56368">
        <ele>1529</ele>
        <time>2014-08-11T11:41:30Z</time>
      </trkpt>
      <trkpt lat="42.70648" lon="1.56379">
        <ele>1532</ele>
        <time>2014-08-11T11:41:41Z</time>
      </trkpt>
      <trkpt lat="42.70643" lon="1.56392">
        <ele>1532</ele>
        <time>2014-08-11T11:41:55Z</time>
      </trkpt>
      <trkpt lat="42.70641" lon="1.564">
        <ele>1533</ele>
        <time>2014-08-11T11:42:06Z</time>
      </trkpt>
      <trkpt lat="42.70638" lon="1.56408">
        <ele>1535</ele>
        <time>2014-08-11T11:42:17Z</time>
      </trkpt>
      <trkpt lat="42.70639" lon="1.56411">
        <ele>1535</ele>
        <time>2014-08-11T11:42:22Z</time>
      </trkpt>
      <trkpt lat="42.70639" lon="1.56426">
        <ele>1537</ele>
        <time>2014-08-11T11:42:35Z</time>
      </trkpt>
      <trkpt lat="42.70639" lon="1.56427">
        <ele>1537</ele>
        <time>2014-08-11T11:42:37Z</time>
      </trkpt>
      <trkpt lat="42.70635" lon="1.56436">
        <ele>1539</ele>
        <time>2014-08-11T11:42:47Z</time>
      </trkpt>
      <trkpt lat="42.70626" lon="1.56446">
        <ele>1541</ele>
        <time>2014-08-11T11:42:59Z</time>
      </trkpt>
      <trkpt lat="42.70612" lon="1.56453">
        <ele>1541</ele>
        <time>2014-08-11T11:43:11Z</time>
      </trkpt>
      <trkpt lat="42.70612" lon="1.56454">
        <ele>1542</ele>
        <time>2014-08-11T11:43:12Z</time>
      </trkpt>
      <trkpt lat="42.70595" lon="1.56458">
        <ele>1543</ele>
        <time>2014-08-11T11:43:26Z</time>
      </trkpt>
      <trkpt lat="42.7058" lon="1.56464">
        <ele>1543</ele>
        <time>2014-08-11T11:43:40Z</time>
      </trkpt>
      <trkpt lat="42.70579" lon="1.56465">
        <ele>1543</ele>
        <time>2014-08-11T11:43:42Z</time>
      </trkpt>
      <trkpt lat="42.70571" lon="1.56475">
        <ele>1543</ele>
        <time>2014-08-11T11:43:54Z</time>
      </trkpt>
      <trkpt lat="42.70567" lon="1.56486">
        <ele>1543</ele>
        <time>2014-08-11T11:44:05Z</time>
      </trkpt>
      <trkpt lat="42.70566" lon="1.56493">
        <ele>1543</ele>
        <time>2014-08-11T11:44:10Z</time>
      </trkpt>
      <trkpt lat="42.70564" lon="1.565">
        <ele>1544</ele>
        <time>2014-08-11T11:44:14Z</time>
      </trkpt>
      <trkpt lat="42.70556" lon="1.56513">
        <ele>1544</ele>
        <time>2014-08-11T11:44:28Z</time>
      </trkpt>
      <trkpt lat="42.70552" lon="1.56527">
        <ele>1545</ele>
        <time>2014-08-11T11:44:41Z</time>
      </trkpt>
      <trkpt lat="42.7055" lon="1.5654">
        <ele>1545</ele>
        <time>2014-08-11T11:44:55Z</time>
      </trkpt>
      <trkpt lat="42.70541" lon="1.56546">
        <ele>1546</ele>
        <time>2014-08-11T11:45:06Z</time>
      </trkpt>
      <trkpt lat="42.70528" lon="1.56557">
        <ele>1546</ele>
        <time>2014-08-11T11:45:19Z</time>
      </trkpt>
      <trkpt lat="42.70519" lon="1.56566">
        <ele>1547</ele>
        <time>2014-08-11T11:45:28Z</time>
      </trkpt>
      <trkpt lat="42.70505" lon="1.56577">
        <ele>1548</ele>
        <time>2014-08-11T11:45:41Z</time>
      </trkpt>
      <trkpt lat="42.70497" lon="1.56588">
        <ele>1548</ele>
        <time>2014-08-11T11:45:53Z</time>
      </trkpt>
      <trkpt lat="42.70495" lon="1.56589">
        <ele>1548</ele>
        <time>2014-08-11T11:45:56Z</time>
      </trkpt>
      <trkpt lat="42.70484" lon="1.56599">
        <ele>1548</ele>
        <time>2014-08-11T11:46:10Z</time>
      </trkpt>
      <trkpt lat="42.70483" lon="1.566">
        <ele>1549</ele>
        <time>2014-08-11T11:46:11Z</time>
      </trkpt>
      <trkpt lat="42.70479" lon="1.56613">
        <ele>1550</ele>
        <time>2014-08-11T11:46:25Z</time>
      </trkpt>
      <trkpt lat="42.70487" lon="1.5662">
        <ele>1551</ele>
        <time>2014-08-11T11:46:39Z</time>
      </trkpt>
      <trkpt lat="42.70495" lon="1.56626">
        <ele>1550</ele>
        <time>2014-08-11T11:46:50Z</time>
      </trkpt>
      <trkpt lat="42.70481" lon="1.56635">
        <ele>1551</ele>
        <time>2014-08-11T11:47:04Z</time>
      </trkpt>
      <trkpt lat="42.70478" lon="1.56644">
        <ele>1554</ele>
        <time>2014-08-11T11:47:19Z</time>
      </trkpt>
      <trkpt lat="42.70479" lon="1.56655">
        <ele>1555</ele>
        <time>2014-08-11T11:47:31Z</time>
      </trkpt>
      <trkpt lat="42.7048" lon="1.56665">
        <ele>1556</ele>
        <time>2014-08-11T11:47:43Z</time>
      </trkpt>
      <trkpt lat="42.70479" lon="1.56671">
        <ele>1556</ele>
        <time>2014-08-11T11:47:55Z</time>
      </trkpt>
      <trkpt lat="42.70475" lon="1.56678">
        <ele>1557</ele>
        <time>2014-08-11T11:48:06Z</time>
      </trkpt>
      <trkpt lat="42.70471" lon="1.56685">
        <ele>1558</ele>
        <time>2014-08-11T11:48:16Z</time>
      </trkpt>
      <trkpt lat="42.70468" lon="1.56693">
        <ele>1560</ele>
        <time>2014-08-11T11:48:30Z</time>
      </trkpt>
      <trkpt lat="42.70462" lon="1.56696">
        <ele>1561</ele>
        <time>2014-08-11T11:48:42Z</time>
      </trkpt>
      <trkpt lat="42.70457" lon="1.56702">
        <ele>1562</ele>
        <time>2014-08-11T11:48:55Z</time>
      </trkpt>
      <trkpt lat="42.70447" lon="1.56705">
        <ele>1564</ele>
        <time>2014-08-11T11:49:10Z</time>
      </trkpt>
      <trkpt lat="42.70441" lon="1.56713">
        <ele>1565</ele>
        <time>2014-08-11T11:49:23Z</time>
      </trkpt>
      <trkpt lat="42.70439" lon="1.56714">
        <ele>1565</ele>
        <time>2014-08-11T11:49:26Z</time>
      </trkpt>
      <trkpt lat="42.70432" lon="1.56725">
        <ele>1565</ele>
        <time>2014-08-11T11:49:39Z</time>
      </trkpt>
      <trkpt lat="42.70431" lon="1.56736">
        <ele>1565</ele>
        <time>2014-08-11T11:49:55Z</time>
      </trkpt>
      <trkpt lat="42.70432" lon="1.56748">
        <ele>1565</ele>
        <time>2014-08-11T11:50:10Z</time>
      </trkpt>
      <trkpt lat="42.70433" lon="1.56762">
        <ele>1565</ele>
        <time>2014-08-11T11:50:22Z</time>
      </trkpt>
      <trkpt lat="42.70433" lon="1.56778">
        <ele>1563</ele>
        <time>2014-08-11T11:50:37Z</time>
      </trkpt>
      <trkpt lat="42.70432" lon="1.56783">
        <ele>1564</ele>
        <time>2014-08-11T11:50:42Z</time>
      </trkpt>
      <trkpt lat="42.70424" lon="1.56799">
        <ele>1564</ele>
        <time>2014-08-11T11:50:56Z</time>
      </trkpt>
      <trkpt lat="42.70419" lon="1.56811">
        <ele>1564</ele>
        <time>2014-08-11T11:51:11Z</time>
      </trkpt>
      <trkpt lat="42.70414" lon="1.56819">
        <ele>1565</ele>
        <time>2014-08-11T11:51:21Z</time>
      </trkpt>
      <trkpt lat="42.70409" lon="1.56834">
        <ele>1566</ele>
        <time>2014-08-11T11:51:35Z</time>
      </trkpt>
      <trkpt lat="42.70408" lon="1.56837">
        <ele>1567</ele>
        <time>2014-08-11T11:51:38Z</time>
      </trkpt>
      <trkpt lat="42.70406" lon="1.56841">
        <ele>1566</ele>
        <time>2014-08-11T11:51:41Z</time>
      </trkpt>
      <trkpt lat="42.70405" lon="1.56843">
        <ele>1566</ele>
        <time>2014-08-11T11:51:43Z</time>
      </trkpt>
      <trkpt lat="42.70404" lon="1.56848">
        <ele>1566</ele>
        <time>2014-08-11T11:51:45Z</time>
      </trkpt>
      <trkpt lat="42.70404" lon="1.56854">
        <ele>1565</ele>
        <time>2014-08-11T11:51:50Z</time>
      </trkpt>
      <trkpt lat="42.70399" lon="1.5687">
        <ele>1565</ele>
        <time>2014-08-11T11:52:02Z</time>
      </trkpt>
      <trkpt lat="42.70397" lon="1.56871">
        <ele>1564</ele>
        <time>2014-08-11T11:52:04Z</time>
      </trkpt>
      <trkpt lat="42.70381" lon="1.56877">
        <ele>1564</ele>
        <time>2014-08-11T11:52:15Z</time>
      </trkpt>
      <trkpt lat="42.70378" lon="1.56883">
        <ele>1564</ele>
        <time>2014-08-11T11:52:22Z</time>
      </trkpt>
      <trkpt lat="42.70372" lon="1.56895">
        <ele>1566</ele>
        <time>2014-08-11T11:52:35Z</time>
      </trkpt>
      <trkpt lat="42.70367" lon="1.56901">
        <ele>1566</ele>
        <time>2014-08-11T11:52:44Z</time>
      </trkpt>
      <trkpt lat="42.70363" lon="1.56912">
        <ele>1567</ele>
        <time>2014-08-11T11:52:57Z</time>
      </trkpt>
      <trkpt lat="42.70354" lon="1.56934">
        <ele>1567</ele>
        <time>2014-08-11T11:53:13Z</time>
      </trkpt>
      <trkpt lat="42.70342" lon="1.56949">
        <ele>1568</ele>
        <time>2014-08-11T11:53:29Z</time>
      </trkpt>
      <trkpt lat="42.70341" lon="1.5695">
        <ele>1568</ele>
        <time>2014-08-11T11:53:30Z</time>
      </trkpt>
      <trkpt lat="42.70341" lon="1.5697">
        <ele>1568</ele>
        <time>2014-08-11T11:53:44Z</time>
      </trkpt>
      <trkpt lat="42.7034" lon="1.56973">
        <ele>1568</ele>
        <time>2014-08-11T11:53:47Z</time>
      </trkpt>
      <trkpt lat="42.7034" lon="1.56975">
        <ele>1567</ele>
        <time>2014-08-11T11:53:48Z</time>
      </trkpt>
      <trkpt lat="42.70339" lon="1.56984">
        <ele>1567</ele>
        <time>2014-08-11T11:53:54Z</time>
      </trkpt>
      <trkpt lat="42.70336" lon="1.57007">
        <ele>1566</ele>
        <time>2014-08-11T11:54:10Z</time>
      </trkpt>
      <trkpt lat="42.70336" lon="1.5701">
        <ele>1566</ele>
        <time>2014-08-11T11:54:12Z</time>
      </trkpt>
      <trkpt lat="42.70335" lon="1.57018">
        <ele>1565</ele>
        <time>2014-08-11T11:54:18Z</time>
      </trkpt>
      <trkpt lat="42.70334" lon="1.57034">
        <ele>1565</ele>
        <time>2014-08-11T11:54:31Z</time>
      </trkpt>
      <trkpt lat="42.70336" lon="1.57051">
        <ele>1565</ele>
        <time>2014-08-11T11:54:44Z</time>
      </trkpt>
      <trkpt lat="42.70332" lon="1.57063">
        <ele>1565</ele>
        <time>2014-08-11T11:54:57Z</time>
      </trkpt>
      <trkpt lat="42.70327" lon="1.57077">
        <ele>1566</ele>
        <time>2014-08-11T11:55:11Z</time>
      </trkpt>
      <trkpt lat="42.70324" lon="1.5709">
        <ele>1566</ele>
        <time>2014-08-11T11:55:22Z</time>
      </trkpt>
      <trkpt lat="42.70319" lon="1.57099">
        <ele>1565</ele>
        <time>2014-08-11T11:55:30Z</time>
      </trkpt>
      <trkpt lat="42.70312" lon="1.5711">
        <ele>1566</ele>
        <time>2014-08-11T11:55:43Z</time>
      </trkpt>
      <trkpt lat="42.70305" lon="1.57123">
        <ele>1565</ele>
        <time>2014-08-11T11:55:56Z</time>
      </trkpt>
      <trkpt lat="42.70297" lon="1.57128">
        <ele>1565</ele>
        <time>2014-08-11T11:56:07Z</time>
      </trkpt>
      <trkpt lat="42.7029" lon="1.57136">
        <ele>1565</ele>
        <time>2014-08-11T11:56:21Z</time>
      </trkpt>
      <trkpt lat="42.7028" lon="1.57143">
        <ele>1565</ele>
        <time>2014-08-11T11:56:33Z</time>
      </trkpt>
      <trkpt lat="42.70265" lon="1.57146">
        <ele>1566</ele>
        <time>2014-08-11T11:56:47Z</time>
      </trkpt>
      <trkpt lat="42.70262" lon="1.57147">
        <ele>1566</ele>
        <time>2014-08-11T11:56:50Z</time>
      </trkpt>
      <trkpt lat="42.70256" lon="1.57155">
        <ele>1567</ele>
        <time>2014-08-11T11:57:00Z</time>
      </trkpt>
      <trkpt lat="42.7025" lon="1.57168">
        <ele>1566</ele>
        <time>2014-08-11T11:57:15Z</time>
      </trkpt>
      <trkpt lat="42.70243" lon="1.57177">
        <ele>1566</ele>
        <time>2014-08-11T11:57:27Z</time>
      </trkpt>
      <trkpt lat="42.70239" lon="1.57183">
        <ele>1567</ele>
        <time>2014-08-11T11:57:36Z</time>
      </trkpt>
      <trkpt lat="42.70236" lon="1.57186">
        <ele>1568</ele>
        <time>2014-08-11T11:57:40Z</time>
      </trkpt>
      <trkpt lat="42.70229" lon="1.57192">
        <ele>1567</ele>
        <time>2014-08-11T11:57:53Z</time>
      </trkpt>
      <trkpt lat="42.70227" lon="1.57205">
        <ele>1567</ele>
        <time>2014-08-11T11:58:06Z</time>
      </trkpt>
      <trkpt lat="42.70227" lon="1.57207">
        <ele>1567</ele>
        <time>2014-08-11T11:58:08Z</time>
      </trkpt>
      <trkpt lat="42.70225" lon="1.57212">
        <ele>1567</ele>
        <time>2014-08-11T11:58:12Z</time>
      </trkpt>
      <trkpt lat="42.7022" lon="1.5722">
        <ele>1568</ele>
        <time>2014-08-11T11:58:20Z</time>
      </trkpt>
      <trkpt lat="42.70208" lon="1.57229">
        <ele>1568</ele>
        <time>2014-08-11T11:58:34Z</time>
      </trkpt>
      <trkpt lat="42.70206" lon="1.57238">
        <ele>1568</ele>
        <time>2014-08-11T11:58:45Z</time>
      </trkpt>
      <trkpt lat="42.70205" lon="1.5724">
        <ele>1568</ele>
        <time>2014-08-11T11:58:47Z</time>
      </trkpt>
      <trkpt lat="42.70203" lon="1.57242">
        <ele>1568</ele>
        <time>2014-08-11T11:58:49Z</time>
      </trkpt>
      <trkpt lat="42.70198" lon="1.57245">
        <ele>1568</ele>
        <time>2014-08-11T11:59:00Z</time>
      </trkpt>
      <trkpt lat="42.70189" lon="1.57248">
        <ele>1568</ele>
        <time>2014-08-11T11:59:07Z</time>
      </trkpt>
      <trkpt lat="42.70174" lon="1.57259">
        <ele>1567</ele>
        <time>2014-08-11T11:59:22Z</time>
      </trkpt>
      <trkpt lat="42.70168" lon="1.57262">
        <ele>1567</ele>
        <time>2014-08-11T11:59:29Z</time>
      </trkpt>
      <trkpt lat="42.70166" lon="1.57265">
        <ele>1567</ele>
        <time>2014-08-11T11:59:32Z</time>
      </trkpt>
      <trkpt lat="42.70153" lon="1.5727">
        <ele>1568</ele>
        <time>2014-08-11T11:59:47Z</time>
      </trkpt>
      <trkpt lat="42.70149" lon="1.57271">
        <ele>1568</ele>
        <time>2014-08-11T11:59:52Z</time>
      </trkpt>
      <trkpt lat="42.70141" lon="1.57272">
        <ele>1569</ele>
        <time>2014-08-11T12:00:00Z</time>
      </trkpt>
      <trkpt lat="42.70135" lon="1.57274">
        <ele>1569</ele>
        <time>2014-08-11T12:00:07Z</time>
      </trkpt>
      <trkpt lat="42.70129" lon="1.57275">
        <ele>1569</ele>
        <time>2014-08-11T12:00:15Z</time>
      </trkpt>
      <trkpt lat="42.70128" lon="1.57279">
        <ele>1570</ele>
        <time>2014-08-11T12:00:21Z</time>
      </trkpt>
      <trkpt lat="42.70125" lon="1.57282">
        <ele>1571</ele>
        <time>2014-08-11T12:00:26Z</time>
      </trkpt>
      <trkpt lat="42.70114" lon="1.57287">
        <ele>1572</ele>
        <time>2014-08-11T12:00:39Z</time>
      </trkpt>
      <trkpt lat="42.70105" lon="1.57293">
        <ele>1573</ele>
        <time>2014-08-11T12:00:52Z</time>
      </trkpt>
      <trkpt lat="42.70101" lon="1.57303">
        <ele>1573</ele>
        <time>2014-08-11T12:01:06Z</time>
      </trkpt>
      <trkpt lat="42.70099" lon="1.57305">
        <ele>1574</ele>
        <time>2014-08-11T12:01:10Z</time>
      </trkpt>
      <trkpt lat="42.70087" lon="1.5731">
        <ele>1574</ele>
        <time>2014-08-11T12:01:25Z</time>
      </trkpt>
      <trkpt lat="42.70077" lon="1.57312">
        <ele>1575</ele>
        <time>2014-08-11T12:01:35Z</time>
      </trkpt>
      <trkpt lat="42.70065" lon="1.5732">
        <ele>1575</ele>
        <time>2014-08-11T12:01:49Z</time>
      </trkpt>
      <trkpt lat="42.70058" lon="1.57325">
        <ele>1576</ele>
        <time>2014-08-11T12:01:58Z</time>
      </trkpt>
      <trkpt lat="42.70046" lon="1.57332">
        <ele>1574</ele>
        <time>2014-08-11T12:02:13Z</time>
      </trkpt>
      <trkpt lat="42.70045" lon="1.57333">
        <ele>1574</ele>
        <time>2014-08-11T12:02:15Z</time>
      </trkpt>
      <trkpt lat="42.7004" lon="1.5734">
        <ele>1574</ele>
        <time>2014-08-11T12:02:29Z</time>
      </trkpt>
      <trkpt lat="42.70043" lon="1.57341">
        <ele>1576</ele>
        <time>2014-08-11T12:02:45Z</time>
      </trkpt>
      <trkpt lat="42.70039" lon="1.57343">
        <ele>1577</ele>
        <time>2014-08-11T12:02:56Z</time>
      </trkpt>
      <trkpt lat="42.7004" lon="1.57344">
        <ele>1575</ele>
        <time>2014-08-11T12:02:57Z</time>
      </trkpt>
      <trkpt lat="42.70032" lon="1.57345">
        <ele>1576</ele>
        <time>2014-08-11T12:03:01Z</time>
      </trkpt>
      <trkpt lat="42.70007" lon="1.57346">
        <ele>1576</ele>
        <time>2014-08-11T12:03:17Z</time>
      </trkpt>
      <trkpt lat="42.70002" lon="1.5735">
        <ele>1577</ele>
        <time>2014-08-11T12:03:31Z</time>
      </trkpt>
      <trkpt lat="42.69993" lon="1.57346">
        <ele>1577</ele>
        <time>2014-08-11T12:03:38Z</time>
      </trkpt>
      <trkpt lat="42.69987" lon="1.57352">
        <ele>1576</ele>
        <time>2014-08-11T12:03:47Z</time>
      </trkpt>
      <trkpt lat="42.69977" lon="1.57353">
        <ele>1576</ele>
        <time>2014-08-11T12:03:56Z</time>
      </trkpt>
      <trkpt lat="42.6997" lon="1.57354">
        <ele>1575</ele>
        <time>2014-08-11T12:04:03Z</time>
      </trkpt>
      <trkpt lat="42.69961" lon="1.57349">
        <ele>1574</ele>
        <time>2014-08-11T12:04:10Z</time>
      </trkpt>
      <trkpt lat="42.69949" lon="1.57346">
        <ele>1575</ele>
        <time>2014-08-11T12:04:24Z</time>
      </trkpt>
      <trkpt lat="42.69948" lon="1.57347">
        <ele>1574</ele>
        <time>2014-08-11T12:04:34Z</time>
      </trkpt>
      <trkpt lat="42.69947" lon="1.57349">
        <ele>1575</ele>
        <time>2014-08-11T12:04:35Z</time>
      </trkpt>
      <trkpt lat="42.69938" lon="1.57347">
        <ele>1574</ele>
        <time>2014-08-11T12:04:49Z</time>
      </trkpt>
      <trkpt lat="42.69928" lon="1.57345">
        <ele>1574</ele>
        <time>2014-08-11T12:05:02Z</time>
      </trkpt>
      <trkpt lat="42.69925" lon="1.57344">
        <ele>1575</ele>
        <time>2014-08-11T12:05:14Z</time>
      </trkpt>
      <trkpt lat="42.69923" lon="1.57346">
        <ele>1573</ele>
        <time>2014-08-11T12:05:27Z</time>
      </trkpt>
      <trkpt lat="42.69916" lon="1.57354">
        <ele>1575</ele>
        <time>2014-08-11T12:05:37Z</time>
      </trkpt>
      <trkpt lat="42.69913" lon="1.57364">
        <ele>1575</ele>
        <time>2014-08-11T12:05:50Z</time>
      </trkpt>
      <trkpt lat="42.69912" lon="1.5737">
        <ele>1575</ele>
        <time>2014-08-11T12:06:02Z</time>
      </trkpt>
      <trkpt lat="42.69908" lon="1.57376">
        <ele>1576</ele>
        <time>2014-08-11T12:06:14Z</time>
      </trkpt>
      <trkpt lat="42.69908" lon="1.57383">
        <ele>1578</ele>
        <time>2014-08-11T12:06:25Z</time>
      </trkpt>
      <trkpt lat="42.69905" lon="1.57388">
        <ele>1577</ele>
        <time>2014-08-11T12:06:38Z</time>
      </trkpt>
      <trkpt lat="42.69904" lon="1.57395">
        <ele>1579</ele>
        <time>2014-08-11T12:06:48Z</time>
      </trkpt>
      <trkpt lat="42.69901" lon="1.57399">
        <ele>1579</ele>
        <time>2014-08-11T12:06:57Z</time>
      </trkpt>
      <trkpt lat="42.69897" lon="1.57409">
        <ele>1580</ele>
        <time>2014-08-11T12:07:08Z</time>
      </trkpt>
      <trkpt lat="42.69899" lon="1.57416">
        <ele>1580</ele>
        <time>2014-08-11T12:07:22Z</time>
      </trkpt>
      <trkpt lat="42.69893" lon="1.57418">
        <ele>1580</ele>
        <time>2014-08-11T12:07:35Z</time>
      </trkpt>
      <trkpt lat="42.69889" lon="1.57423">
        <ele>1581</ele>
        <time>2014-08-11T12:07:50Z</time>
      </trkpt>
      <trkpt lat="42.69881" lon="1.57472">
        <ele>1582</ele>
        <time>2014-08-11T12:08:03Z</time>
      </trkpt>
      <trkpt lat="42.69866" lon="1.57491">
        <ele>1582</ele>
        <time>2014-08-11T12:08:14Z</time>
      </trkpt>
      <trkpt lat="42.69851" lon="1.57501">
        <ele>1583</ele>
        <time>2014-08-11T12:08:27Z</time>
      </trkpt>
      <trkpt lat="42.69846" lon="1.57505">
        <ele>1583</ele>
        <time>2014-08-11T12:08:33Z</time>
      </trkpt>
      <trkpt lat="42.69841" lon="1.57504">
        <ele>1582</ele>
        <time>2014-08-11T12:08:39Z</time>
      </trkpt>
      <trkpt lat="42.69831" lon="1.57506">
        <ele>1583</ele>
        <time>2014-08-11T12:08:54Z</time>
      </trkpt>
      <trkpt lat="42.69824" lon="1.57511">
        <ele>1585</ele>
        <time>2014-08-11T12:09:08Z</time>
      </trkpt>
      <trkpt lat="42.6982" lon="1.57516">
        <ele>1585</ele>
        <time>2014-08-11T12:09:20Z</time>
      </trkpt>
      <trkpt lat="42.69815" lon="1.57524">
        <ele>1587</ele>
        <time>2014-08-11T12:09:34Z</time>
      </trkpt>
      <trkpt lat="42.69808" lon="1.57525">
        <ele>1588</ele>
        <time>2014-08-11T12:09:46Z</time>
      </trkpt>
      <trkpt lat="42.69803" lon="1.57525">
        <ele>1588</ele>
        <time>2014-08-11T12:10:00Z</time>
      </trkpt>
      <trkpt lat="42.69796" lon="1.57516">
        <ele>1587</ele>
        <time>2014-08-11T12:10:14Z</time>
      </trkpt>
      <trkpt lat="42.69795" lon="1.57515">
        <ele>1588</ele>
        <time>2014-08-11T12:10:26Z</time>
      </trkpt>
      <trkpt lat="42.69791" lon="1.57517">
        <ele>1588</ele>
        <time>2014-08-11T12:10:57Z</time>
      </trkpt>
      <trkpt lat="42.69793" lon="1.57516">
        <ele>1587</ele>
        <time>2014-08-11T12:11:23Z</time>
      </trkpt>
      <trkpt lat="42.69791" lon="1.57516">
        <ele>1587</ele>
        <time>2014-08-11T12:11:41Z</time>
      </trkpt>
      <trkpt lat="42.69791" lon="1.57519">
        <ele>1587</ele>
        <time>2014-08-11T12:12:04Z</time>
      </trkpt>
      <trkpt lat="42.69789" lon="1.57519">
        <ele>1587</ele>
        <time>2014-08-11T12:12:31Z</time>
      </trkpt>
      <trkpt lat="42.6979" lon="1.57521">
        <ele>1587</ele>
        <time>2014-08-11T12:13:03Z</time>
      </trkpt>
      <trkpt lat="42.6979" lon="1.57521">
        <ele>1587</ele>
        <time>2014-08-11T12:13:30Z</time>
      </trkpt>
      <trkpt lat="42.6979" lon="1.57526">
        <ele>1587</ele>
        <time>2014-08-11T12:13:56Z</time>
      </trkpt>
      <trkpt lat="42.69789" lon="1.57525">
        <ele>1587</ele>
        <time>2014-08-11T12:14:30Z</time>
      </trkpt>
      <trkpt lat="42.6979" lon="1.57523">
        <ele>1587</ele>
        <time>2014-08-11T12:14:57Z</time>
      </trkpt>
      <trkpt lat="42.69789" lon="1.57526">
        <ele>1588</ele>
        <time>2014-08-11T12:15:25Z</time>
      </trkpt>
      <trkpt lat="42.69792" lon="1.57525">
        <ele>1588</ele>
        <time>2014-08-11T12:15:51Z</time>
      </trkpt>
      <trkpt lat="42.69792" lon="1.57524">
        <ele>1588</ele>
        <time>2014-08-11T12:16:24Z</time>
      </trkpt>
      <trkpt lat="42.69792" lon="1.57523">
        <ele>1588</ele>
        <time>2014-08-11T12:16:48Z</time>
      </trkpt>
      <trkpt lat="42.69789" lon="1.57521">
        <ele>1588</ele>
        <time>2014-08-11T12:16:54Z</time>
      </trkpt>
      <trkpt lat="42.69782" lon="1.57511">
        <ele>1587</ele>
        <time>2014-08-11T12:17:09Z</time>
      </trkpt>
      <trkpt lat="42.69774" lon="1.57509">
        <ele>1586</ele>
        <time>2014-08-11T12:17:23Z</time>
      </trkpt>
      <trkpt lat="42.6977" lon="1.57514">
        <ele>1585</ele>
        <time>2014-08-11T12:17:36Z</time>
      </trkpt>
      <trkpt lat="42.69764" lon="1.57522">
        <ele>1587</ele>
        <time>2014-08-11T12:17:50Z</time>
      </trkpt>
      <trkpt lat="42.69759" lon="1.57528">
        <ele>1588</ele>
        <time>2014-08-11T12:18:04Z</time>
      </trkpt>
      <trkpt lat="42.69755" lon="1.5753">
        <ele>1589</ele>
        <time>2014-08-11T12:18:17Z</time>
      </trkpt>
      <trkpt lat="42.69753" lon="1.5753">
        <ele>1588</ele>
        <time>2014-08-11T12:18:19Z</time>
      </trkpt>
      <trkpt lat="42.69749" lon="1.5753">
        <ele>1588</ele>
        <time>2014-08-11T12:18:25Z</time>
      </trkpt>
      <trkpt lat="42.69746" lon="1.5753">
        <ele>1588</ele>
        <time>2014-08-11T12:18:39Z</time>
      </trkpt>
      <trkpt lat="42.69738" lon="1.57526">
        <ele>1589</ele>
        <time>2014-08-11T12:18:54Z</time>
      </trkpt>
      <trkpt lat="42.69736" lon="1.57525">
        <ele>1589</ele>
        <time>2014-08-11T12:18:56Z</time>
      </trkpt>
      <trkpt lat="42.69732" lon="1.57525">
        <ele>1589</ele>
        <time>2014-08-11T12:19:01Z</time>
      </trkpt>
      <trkpt lat="42.69721" lon="1.57526">
        <ele>1588</ele>
        <time>2014-08-11T12:19:16Z</time>
      </trkpt>
      <trkpt lat="42.69711" lon="1.57521">
        <ele>1586</ele>
        <time>2014-08-11T12:19:30Z</time>
      </trkpt>
      <trkpt lat="42.69704" lon="1.57522">
        <ele>1585</ele>
        <time>2014-08-11T12:19:41Z</time>
      </trkpt>
      <trkpt lat="42.69696" lon="1.57519">
        <ele>1584</ele>
        <time>2014-08-11T12:19:52Z</time>
      </trkpt>
      <trkpt lat="42.69694" lon="1.57517">
        <ele>1583</ele>
        <time>2014-08-11T12:19:55Z</time>
      </trkpt>
      <trkpt lat="42.69679" lon="1.57512">
        <ele>1584</ele>
        <time>2014-08-11T12:20:11Z</time>
      </trkpt>
      <trkpt lat="42.69677" lon="1.57514">
        <ele>1584</ele>
        <time>2014-08-11T12:20:14Z</time>
      </trkpt>
      <trkpt lat="42.69671" lon="1.57517">
        <ele>1584</ele>
        <time>2014-08-11T12:20:21Z</time>
      </trkpt>
      <trkpt lat="42.69668" lon="1.57522">
        <ele>1584</ele>
        <time>2014-08-11T12:20:26Z</time>
      </trkpt>
      <trkpt lat="42.69658" lon="1.57527">
        <ele>1584</ele>
        <time>2014-08-11T12:20:39Z</time>
      </trkpt>
      <trkpt lat="42.69651" lon="1.57526">
        <ele>1584</ele>
        <time>2014-08-11T12:20:50Z</time>
      </trkpt>
      <trkpt lat="42.69644" lon="1.57527">
        <ele>1584</ele>
        <time>2014-08-11T12:21:01Z</time>
      </trkpt>
      <trkpt lat="42.69635" lon="1.57526">
        <ele>1584</ele>
        <time>2014-08-11T12:21:14Z</time>
      </trkpt>
      <trkpt lat="42.69627" lon="1.57523">
        <ele>1584</ele>
        <time>2014-08-11T12:21:25Z</time>
      </trkpt>
      <trkpt lat="42.69624" lon="1.57523">
        <ele>1585</ele>
        <time>2014-08-11T12:21:30Z</time>
      </trkpt>
      <trkpt lat="42.69617" lon="1.57521">
        <ele>1585</ele>
        <time>2014-08-11T12:21:39Z</time>
      </trkpt>
      <trkpt lat="42.6961" lon="1.57513">
        <ele>1586</ele>
        <time>2014-08-11T12:21:48Z</time>
      </trkpt>
      <trkpt lat="42.69595" lon="1.57506">
        <ele>1586</ele>
        <time>2014-08-11T12:22:05Z</time>
      </trkpt>
      <trkpt lat="42.69594" lon="1.57506">
        <ele>1586</ele>
        <time>2014-08-11T12:22:06Z</time>
      </trkpt>
      <trkpt lat="42.69593" lon="1.57506">
        <ele>1587</ele>
        <time>2014-08-11T12:22:08Z</time>
      </trkpt>
      <trkpt lat="42.69587" lon="1.57502">
        <ele>1587</ele>
        <time>2014-08-11T12:22:14Z</time>
      </trkpt>
      <trkpt lat="42.69584" lon="1.57499">
        <ele>1587</ele>
        <time>2014-08-11T12:22:18Z</time>
      </trkpt>
      <trkpt lat="42.69577" lon="1.57486">
        <ele>1588</ele>
        <time>2014-08-11T12:22:32Z</time>
      </trkpt>
      <trkpt lat="42.69573" lon="1.57473">
        <ele>1590</ele>
        <time>2014-08-11T12:22:45Z</time>
      </trkpt>
      <trkpt lat="42.69568" lon="1.5746">
        <ele>1591</ele>
        <time>2014-08-11T12:23:00Z</time>
      </trkpt>
      <trkpt lat="42.69561" lon="1.57455">
        <ele>1593</ele>
        <time>2014-08-11T12:23:12Z</time>
      </trkpt>
      <trkpt lat="42.69561" lon="1.57447">
        <ele>1594</ele>
        <time>2014-08-11T12:23:19Z</time>
      </trkpt>
      <trkpt lat="42.69554" lon="1.57446">
        <ele>1595</ele>
        <time>2014-08-11T12:23:31Z</time>
      </trkpt>
      <trkpt lat="42.69546" lon="1.57444">
        <ele>1597</ele>
        <time>2014-08-11T12:23:43Z</time>
      </trkpt>
      <trkpt lat="42.69537" lon="1.57443">
        <ele>1598</ele>
        <time>2014-08-11T12:23:55Z</time>
      </trkpt>
      <trkpt lat="42.69537" lon="1.57441">
        <ele>1599</ele>
        <time>2014-08-11T12:23:56Z</time>
      </trkpt>
      <trkpt lat="42.6953" lon="1.5743">
        <ele>1601</ele>
        <time>2014-08-11T12:24:10Z</time>
      </trkpt>
      <trkpt lat="42.69524" lon="1.57421">
        <ele>1601</ele>
        <time>2014-08-11T12:24:22Z</time>
      </trkpt>
      <trkpt lat="42.69523" lon="1.57419">
        <ele>1602</ele>
        <time>2014-08-11T12:24:24Z</time>
      </trkpt>
      <trkpt lat="42.69515" lon="1.57408">
        <ele>1603</ele>
        <time>2014-08-11T12:24:38Z</time>
      </trkpt>
      <trkpt lat="42.69506" lon="1.57405">
        <ele>1604</ele>
        <time>2014-08-11T12:24:48Z</time>
      </trkpt>
      <trkpt lat="42.69504" lon="1.57404">
        <ele>1604</ele>
        <time>2014-08-11T12:24:50Z</time>
      </trkpt>
      <trkpt lat="42.69499" lon="1.57398">
        <ele>1605</ele>
        <time>2014-08-11T12:25:01Z</time>
      </trkpt>
      <trkpt lat="42.69492" lon="1.57389">
        <ele>1605</ele>
        <time>2014-08-11T12:25:14Z</time>
      </trkpt>
      <trkpt lat="42.69483" lon="1.57382">
        <ele>1606</ele>
        <time>2014-08-11T12:25:28Z</time>
      </trkpt>
      <trkpt lat="42.69482" lon="1.57376">
        <ele>1606</ele>
        <time>2014-08-11T12:25:39Z</time>
      </trkpt>
      <trkpt lat="42.69475" lon="1.57371">
        <ele>1607</ele>
        <time>2014-08-11T12:25:51Z</time>
      </trkpt>
      <trkpt lat="42.6947" lon="1.57371">
        <ele>1608</ele>
        <time>2014-08-11T12:25:57Z</time>
      </trkpt>
      <trkpt lat="42.69462" lon="1.57364">
        <ele>1609</ele>
        <time>2014-08-11T12:26:12Z</time>
      </trkpt>
      <trkpt lat="42.69462" lon="1.57367">
        <ele>1609</ele>
        <time>2014-08-11T12:26:25Z</time>
      </trkpt>
      <trkpt lat="42.69458" lon="1.57361">
        <ele>1610</ele>
        <time>2014-08-11T12:26:32Z</time>
      </trkpt>
      <trkpt lat="42.69449" lon="1.57353">
        <ele>1612</ele>
        <time>2014-08-11T12:26:45Z</time>
      </trkpt>
      <trkpt lat="42.69444" lon="1.57346">
        <ele>1613</ele>
        <time>2014-08-11T12:26:54Z</time>
      </trkpt>
      <trkpt lat="42.69439" lon="1.57337">
        <ele>1614</ele>
        <time>2014-08-11T12:27:06Z</time>
      </trkpt>
      <trkpt lat="42.69432" lon="1.57326">
        <ele>1615</ele>
        <time>2014-08-11T12:27:19Z</time>
      </trkpt>
      <trkpt lat="42.69427" lon="1.57315">
        <ele>1616</ele>
        <time>2014-08-11T12:27:31Z</time>
      </trkpt>
      <trkpt lat="42.69421" lon="1.57304">
        <ele>1617</ele>
        <time>2014-08-11T12:27:42Z</time>
      </trkpt>
      <trkpt lat="42.6942" lon="1.57296">
        <ele>1617</ele>
        <time>2014-08-11T12:27:48Z</time>
      </trkpt>
      <trkpt lat="42.69422" lon="1.57286">
        <ele>1618</ele>
        <time>2014-08-11T12:28:00Z</time>
      </trkpt>
      <trkpt lat="42.69424" lon="1.57274">
        <ele>1619</ele>
        <time>2014-08-11T12:28:11Z</time>
      </trkpt>
      <trkpt lat="42.69425" lon="1.57271">
        <ele>1619</ele>
        <time>2014-08-11T12:28:25Z</time>
      </trkpt>
      <trkpt lat="42.69422" lon="1.57267">
        <ele>1619</ele>
        <time>2014-08-11T12:28:40Z</time>
      </trkpt>
      <trkpt lat="42.69422" lon="1.57268">
        <ele>1619</ele>
        <time>2014-08-11T12:29:01Z</time>
      </trkpt>
      <trkpt lat="42.6942" lon="1.57271">
        <ele>1619</ele>
        <time>2014-08-11T12:29:24Z</time>
      </trkpt>
      <trkpt lat="42.69418" lon="1.57267">
        <ele>1619</ele>
        <time>2014-08-11T12:29:43Z</time>
      </trkpt>
      <trkpt lat="42.69417" lon="1.57259">
        <ele>1620</ele>
        <time>2014-08-11T12:29:53Z</time>
      </trkpt>
      <trkpt lat="42.69411" lon="1.57253">
        <ele>1622</ele>
        <time>2014-08-11T12:30:04Z</time>
      </trkpt>
      <trkpt lat="42.69405" lon="1.57247">
        <ele>1625</ele>
        <time>2014-08-11T12:30:16Z</time>
      </trkpt>
      <trkpt lat="42.69402" lon="1.57245">
        <ele>1625</ele>
        <time>2014-08-11T12:30:20Z</time>
      </trkpt>
      <trkpt lat="42.694" lon="1.57231">
        <ele>1627</ele>
        <time>2014-08-11T12:30:35Z</time>
      </trkpt>
      <trkpt lat="42.69394" lon="1.57226">
        <ele>1629</ele>
        <time>2014-08-11T12:30:47Z</time>
      </trkpt>
      <trkpt lat="42.69392" lon="1.57216">
        <ele>1631</ele>
        <time>2014-08-11T12:30:59Z</time>
      </trkpt>
      <trkpt lat="42.69392" lon="1.57206">
        <ele>1632</ele>
        <time>2014-08-11T12:31:10Z</time>
      </trkpt>
      <trkpt lat="42.6939" lon="1.57199">
        <ele>1633</ele>
        <time>2014-08-11T12:31:19Z</time>
      </trkpt>
      <trkpt lat="42.69391" lon="1.57186">
        <ele>1632</ele>
        <time>2014-08-11T12:31:31Z</time>
      </trkpt>
      <trkpt lat="42.6939" lon="1.57177">
        <ele>1632</ele>
        <time>2014-08-11T12:31:40Z</time>
      </trkpt>
      <trkpt lat="42.69384" lon="1.57171">
        <ele>1633</ele>
        <time>2014-08-11T12:31:51Z</time>
      </trkpt>
      <trkpt lat="42.69378" lon="1.57173">
        <ele>1633</ele>
        <time>2014-08-11T12:31:57Z</time>
      </trkpt>
      <trkpt lat="42.69371" lon="1.57177">
        <ele>1633</ele>
        <time>2014-08-11T12:32:09Z</time>
      </trkpt>
      <trkpt lat="42.69371" lon="1.57177">
        <ele>1634</ele>
        <time>2014-08-11T12:32:11Z</time>
      </trkpt>
      <trkpt lat="42.69369" lon="1.57176">
        <ele>1633</ele>
        <time>2014-08-11T12:32:14Z</time>
      </trkpt>
      <trkpt lat="42.69364" lon="1.57169">
        <ele>1633</ele>
        <time>2014-08-11T12:32:26Z</time>
      </trkpt>
      <trkpt lat="42.69362" lon="1.57167">
        <ele>1634</ele>
        <time>2014-08-11T12:32:30Z</time>
      </trkpt>
      <trkpt lat="42.69358" lon="1.5716">
        <ele>1634</ele>
        <time>2014-08-11T12:32:41Z</time>
      </trkpt>
      <trkpt lat="42.69354" lon="1.57158">
        <ele>1635</ele>
        <time>2014-08-11T12:32:53Z</time>
      </trkpt>
      <trkpt lat="42.69353" lon="1.57146">
        <ele>1636</ele>
        <time>2014-08-11T12:33:04Z</time>
      </trkpt>
      <trkpt lat="42.69353" lon="1.57136">
        <ele>1636</ele>
        <time>2014-08-11T12:33:16Z</time>
      </trkpt>
      <trkpt lat="42.69353" lon="1.57134">
        <ele>1637</ele>
        <time>2014-08-11T12:33:28Z</time>
      </trkpt>
      <trkpt lat="42.69352" lon="1.57134">
        <ele>1637</ele>
        <time>2014-08-11T12:33:32Z</time>
      </trkpt>
      <trkpt lat="42.6935" lon="1.57123">
        <ele>1638</ele>
        <time>2014-08-11T12:33:45Z</time>
      </trkpt>
      <trkpt lat="42.6935" lon="1.57114">
        <ele>1640</ele>
        <time>2014-08-11T12:33:57Z</time>
      </trkpt>
      <trkpt lat="42.69344" lon="1.57112">
        <ele>1641</ele>
        <time>2014-08-11T12:34:09Z</time>
      </trkpt>
      <trkpt lat="42.69338" lon="1.57109">
        <ele>1642</ele>
        <time>2014-08-11T12:34:20Z</time>
      </trkpt>
      <trkpt lat="42.69331" lon="1.57102">
        <ele>1643</ele>
        <time>2014-08-11T12:34:35Z</time>
      </trkpt>
      <trkpt lat="42.69333" lon="1.571">
        <ele>1643</ele>
        <time>2014-08-11T12:34:38Z</time>
      </trkpt>
      <trkpt lat="42.69333" lon="1.57088">
        <ele>1644</ele>
        <time>2014-08-11T12:34:50Z</time>
      </trkpt>
      <trkpt lat="42.69331" lon="1.57081">
        <ele>1644</ele>
        <time>2014-08-11T12:35:01Z</time>
      </trkpt>
      <trkpt lat="42.69327" lon="1.57069">
        <ele>1645</ele>
        <time>2014-08-11T12:35:15Z</time>
      </trkpt>
      <trkpt lat="42.6932" lon="1.57065">
        <ele>1646</ele>
        <time>2014-08-11T12:35:27Z</time>
      </trkpt>
      <trkpt lat="42.69311" lon="1.57066">
        <ele>1647</ele>
        <time>2014-08-11T12:35:39Z</time>
      </trkpt>
      <trkpt lat="42.69305" lon="1.57066">
        <ele>1647</ele>
        <time>2014-08-11T12:35:54Z</time>
      </trkpt>
      <trkpt lat="42.69305" lon="1.57065">
        <ele>1647</ele>
        <time>2014-08-11T12:35:55Z</time>
      </trkpt>
      <trkpt lat="42.69297" lon="1.57057">
        <ele>1648</ele>
        <time>2014-08-11T12:36:06Z</time>
      </trkpt>
      <trkpt lat="42.69289" lon="1.57049">
        <ele>1649</ele>
        <time>2014-08-11T12:36:23Z</time>
      </trkpt>
      <trkpt lat="42.69286" lon="1.57044">
        <ele>1650</ele>
        <time>2014-08-11T12:36:36Z</time>
      </trkpt>
      <trkpt lat="42.69285" lon="1.57038">
        <ele>1650</ele>
        <time>2014-08-11T12:36:49Z</time>
      </trkpt>
      <trkpt lat="42.69285" lon="1.57035">
        <ele>1650</ele>
        <time>2014-08-11T12:36:53Z</time>
      </trkpt>
      <trkpt lat="42.6928" lon="1.57033">
        <ele>1651</ele>
        <time>2014-08-11T12:37:00Z</time>
      </trkpt>
      <trkpt lat="42.69273" lon="1.57027">
        <ele>1652</ele>
        <time>2014-08-11T12:37:14Z</time>
      </trkpt>
      <trkpt lat="42.69272" lon="1.57029">
        <ele>1652</ele>
        <time>2014-08-11T12:37:18Z</time>
      </trkpt>
      <trkpt lat="42.6927" lon="1.5703">
        <ele>1652</ele>
        <time>2014-08-11T12:37:20Z</time>
      </trkpt>
      <trkpt lat="42.6926" lon="1.57018">
        <ele>1652</ele>
        <time>2014-08-11T12:37:34Z</time>
      </trkpt>
      <trkpt lat="42.69259" lon="1.57014">
        <ele>1653</ele>
        <time>2014-08-11T12:37:38Z</time>
      </trkpt>
      <trkpt lat="42.69257" lon="1.57">
        <ele>1654</ele>
        <time>2014-08-11T12:37:51Z</time>
      </trkpt>
      <trkpt lat="42.69248" lon="1.56993">
        <ele>1655</ele>
        <time>2014-08-11T12:38:05Z</time>
      </trkpt>
      <trkpt lat="42.69245" lon="1.56978">
        <ele>1656</ele>
        <time>2014-08-11T12:38:18Z</time>
      </trkpt>
      <trkpt lat="42.69239" lon="1.56965">
        <ele>1657</ele>
        <time>2014-08-11T12:38:32Z</time>
      </trkpt>
      <trkpt lat="42.69242" lon="1.56954">
        <ele>1659</ele>
        <time>2014-08-11T12:38:44Z</time>
      </trkpt>
      <trkpt lat="42.69242" lon="1.56943">
        <ele>1660</ele>
        <time>2014-08-11T12:38:57Z</time>
      </trkpt>
      <trkpt lat="42.69235" lon="1.56935">
        <ele>1662</ele>
        <time>2014-08-11T12:39:09Z</time>
      </trkpt>
      <trkpt lat="42.6923" lon="1.56927">
        <ele>1663</ele>
        <time>2014-08-11T12:39:21Z</time>
      </trkpt>
      <trkpt lat="42.69223" lon="1.56922">
        <ele>1666</ele>
        <time>2014-08-11T12:39:36Z</time>
      </trkpt>
      <trkpt lat="42.69219" lon="1.56916">
        <ele>1667</ele>
        <time>2014-08-11T12:39:47Z</time>
      </trkpt>
      <trkpt lat="42.69212" lon="1.56907">
        <ele>1668</ele>
        <time>2014-08-11T12:40:01Z</time>
      </trkpt>
      <trkpt lat="42.69206" lon="1.56899">
        <ele>1669</ele>
        <time>2014-08-11T12:40:12Z</time>
      </trkpt>
      <trkpt lat="42.69201" lon="1.56887">
        <ele>1671</ele>
        <time>2014-08-11T12:40:28Z</time>
      </trkpt>
      <trkpt lat="42.69192" lon="1.56881">
        <ele>1673</ele>
        <time>2014-08-11T12:40:41Z</time>
      </trkpt>
      <trkpt lat="42.6919" lon="1.56878">
        <ele>1673</ele>
        <time>2014-08-11T12:40:44Z</time>
      </trkpt>
      <trkpt lat="42.69185" lon="1.56868">
        <ele>1674</ele>
        <time>2014-08-11T12:40:56Z</time>
      </trkpt>
      <trkpt lat="42.69194" lon="1.56868">
        <ele>1676</ele>
        <time>2014-08-11T12:41:08Z</time>
      </trkpt>
      <trkpt lat="42.69198" lon="1.56867">
        <ele>1678</ele>
        <time>2014-08-11T12:41:23Z</time>
      </trkpt>
      <trkpt lat="42.6919" lon="1.56864">
        <ele>1679</ele>
        <time>2014-08-11T12:41:34Z</time>
      </trkpt>
      <trkpt lat="42.69184" lon="1.56855">
        <ele>1681</ele>
        <time>2014-08-11T12:41:47Z</time>
      </trkpt>
      <trkpt lat="42.69179" lon="1.56848">
        <ele>1682</ele>
        <time>2014-08-11T12:41:59Z</time>
      </trkpt>
      <trkpt lat="42.69173" lon="1.5684">
        <ele>1683</ele>
        <time>2014-08-11T12:42:11Z</time>
      </trkpt>
      <trkpt lat="42.69173" lon="1.56839">
        <ele>1684</ele>
        <time>2014-08-11T12:42:12Z</time>
      </trkpt>
      <trkpt lat="42.69171" lon="1.56834">
        <ele>1684</ele>
        <time>2014-08-11T12:42:17Z</time>
      </trkpt>
      <trkpt lat="42.69167" lon="1.56826">
        <ele>1686</ele>
        <time>2014-08-11T12:42:30Z</time>
      </trkpt>
      <trkpt lat="42.6916" lon="1.56821">
        <ele>1687</ele>
        <time>2014-08-11T12:42:43Z</time>
      </trkpt>
      <trkpt lat="42.69153" lon="1.56814">
        <ele>1687</ele>
        <time>2014-08-11T12:42:56Z</time>
      </trkpt>
      <trkpt lat="42.69146" lon="1.56817">
        <ele>1688</ele>
        <time>2014-08-11T12:43:07Z</time>
      </trkpt>
      <trkpt lat="42.69143" lon="1.56817">
        <ele>1689</ele>
        <time>2014-08-11T12:43:10Z</time>
      </trkpt>
      <trkpt lat="42.69134" lon="1.56822">
        <ele>1691</ele>
        <time>2014-08-11T12:43:23Z</time>
      </trkpt>
      <trkpt lat="42.69067" lon="1.56768">
        <ele>1715</ele>
        <time>2014-08-11T12:50:01Z</time>
      </trkpt>
      <trkpt lat="42.69078" lon="1.56745">
        <ele>1716</ele>
        <time>2014-08-11T12:50:16Z</time>
      </trkpt>
      <trkpt lat="42.69078" lon="1.56745">
        <ele>1718</ele>
        <time>2014-08-11T12:50:29Z</time>
      </trkpt>
      <trkpt lat="42.69078" lon="1.56736">
        <ele>1720</ele>
        <time>2014-08-11T12:50:43Z</time>
      </trkpt>
      <trkpt lat="42.6908" lon="1.56729">
        <ele>1722</ele>
        <time>2014-08-11T12:50:52Z</time>
      </trkpt>
      <trkpt lat="42.69076" lon="1.56732">
        <ele>1722</ele>
        <time>2014-08-11T12:51:06Z</time>
      </trkpt>
      <trkpt lat="42.6907" lon="1.56731">
        <ele>1725</ele>
        <time>2014-08-11T12:51:22Z</time>
      </trkpt>
      <trkpt lat="42.69067" lon="1.56732">
        <ele>1727</ele>
        <time>2014-08-11T12:51:37Z</time>
      </trkpt>
      <trkpt lat="42.69066" lon="1.56742">
        <ele>1729</ele>
        <time>2014-08-11T12:51:52Z</time>
      </trkpt>
      <trkpt lat="42.69062" lon="1.56746">
        <ele>1731</ele>
        <time>2014-08-11T12:52:08Z</time>
      </trkpt>
      <trkpt lat="42.6906" lon="1.56739">
        <ele>1732</ele>
        <time>2014-08-11T12:52:20Z</time>
      </trkpt>
      <trkpt lat="42.69052" lon="1.56739">
        <ele>1734</ele>
        <time>2014-08-11T12:52:34Z</time>
      </trkpt>
      <trkpt lat="42.69045" lon="1.56743">
        <ele>1736</ele>
        <time>2014-08-11T12:52:48Z</time>
      </trkpt>
      <trkpt lat="42.69043" lon="1.56752">
        <ele>1737</ele>
        <time>2014-08-11T12:53:02Z</time>
      </trkpt>
      <trkpt lat="42.6904" lon="1.5675">
        <ele>1739</ele>
        <time>2014-08-11T12:53:15Z</time>
      </trkpt>
      <trkpt lat="42.69038" lon="1.56747">
        <ele>1741</ele>
        <time>2014-08-11T12:53:30Z</time>
      </trkpt>
      <trkpt lat="42.69033" lon="1.56752">
        <ele>1743</ele>
        <time>2014-08-11T12:53:46Z</time>
      </trkpt>
      <trkpt lat="42.69029" lon="1.56749">
        <ele>1744</ele>
        <time>2014-08-11T12:54:00Z</time>
      </trkpt>
      <trkpt lat="42.69027" lon="1.56748">
        <ele>1745</ele>
        <time>2014-08-11T12:54:07Z</time>
      </trkpt>
      <trkpt lat="42.69022" lon="1.56743">
        <ele>1746</ele>
        <time>2014-08-11T12:54:19Z</time>
      </trkpt>
      <trkpt lat="42.69019" lon="1.56739">
        <ele>1748</ele>
        <time>2014-08-11T12:54:30Z</time>
      </trkpt>
      <trkpt lat="42.69011" lon="1.56735">
        <ele>1750</ele>
        <time>2014-08-11T12:54:44Z</time>
      </trkpt>
      <trkpt lat="42.69008" lon="1.56725">
        <ele>1750</ele>
        <time>2014-08-11T12:54:58Z</time>
      </trkpt>
      <trkpt lat="42.68998" lon="1.5672">
        <ele>1749</ele>
        <time>2014-08-11T12:55:11Z</time>
      </trkpt>
      <trkpt lat="42.68998" lon="1.56719">
        <ele>1750</ele>
        <time>2014-08-11T12:55:13Z</time>
      </trkpt>
      <trkpt lat="42.68994" lon="1.56714">
        <ele>1749</ele>
        <time>2014-08-11T12:55:19Z</time>
      </trkpt>
      <trkpt lat="42.68984" lon="1.56703">
        <ele>1748</ele>
        <time>2014-08-11T12:55:34Z</time>
      </trkpt>
      <trkpt lat="42.68979" lon="1.56701">
        <ele>1749</ele>
        <time>2014-08-11T12:55:47Z</time>
      </trkpt>
      <trkpt lat="42.68974" lon="1.56698">
        <ele>1749</ele>
        <time>2014-08-11T12:56:01Z</time>
      </trkpt>
      <trkpt lat="42.68967" lon="1.56695">
        <ele>1748</ele>
        <time>2014-08-11T12:56:12Z</time>
      </trkpt>
      <trkpt lat="42.6896" lon="1.5669">
        <ele>1746</ele>
        <time>2014-08-11T12:56:26Z</time>
      </trkpt>
      <trkpt lat="42.68959" lon="1.56685">
        <ele>1746</ele>
        <time>2014-08-11T12:56:29Z</time>
      </trkpt>
      <trkpt lat="42.68959" lon="1.56683">
        <ele>1745</ele>
        <time>2014-08-11T12:56:31Z</time>
      </trkpt>
      <trkpt lat="42.68955" lon="1.56666">
        <ele>1744</ele>
        <time>2014-08-11T12:56:46Z</time>
      </trkpt>
      <trkpt lat="42.68954" lon="1.56664">
        <ele>1745</ele>
        <time>2014-08-11T12:56:49Z</time>
      </trkpt>
      <trkpt lat="42.68949" lon="1.56658">
        <ele>1745</ele>
        <time>2014-08-11T12:57:02Z</time>
      </trkpt>
      <trkpt lat="42.68942" lon="1.56651">
        <ele>1745</ele>
        <time>2014-08-11T12:57:15Z</time>
      </trkpt>
      <trkpt lat="42.68935" lon="1.56645">
        <ele>1745</ele>
        <time>2014-08-11T12:57:28Z</time>
      </trkpt>
      <trkpt lat="42.68927" lon="1.56641">
        <ele>1745</ele>
        <time>2014-08-11T12:57:42Z</time>
      </trkpt>
      <trkpt lat="42.68923" lon="1.56633">
        <ele>1745</ele>
        <time>2014-08-11T12:57:56Z</time>
      </trkpt>
      <trkpt lat="42.68918" lon="1.56626">
        <ele>1745</ele>
        <time>2014-08-11T12:58:09Z</time>
      </trkpt>
      <trkpt lat="42.68914" lon="1.56624">
        <ele>1746</ele>
        <time>2014-08-11T12:58:21Z</time>
      </trkpt>
      <trkpt lat="42.68908" lon="1.56626">
        <ele>1747</ele>
        <time>2014-08-11T12:58:32Z</time>
      </trkpt>
      <trkpt lat="42.68903" lon="1.56628">
        <ele>1749</ele>
        <time>2014-08-11T12:58:47Z</time>
      </trkpt>
      <trkpt lat="42.68899" lon="1.56631">
        <ele>1751</ele>
        <time>2014-08-11T12:59:03Z</time>
      </trkpt>
      <trkpt lat="42.68898" lon="1.56629">
        <ele>1753</ele>
        <time>2014-08-11T12:59:15Z</time>
      </trkpt>
      <trkpt lat="42.68894" lon="1.56619">
        <ele>1754</ele>
        <time>2014-08-11T12:59:27Z</time>
      </trkpt>
      <trkpt lat="42.68887" lon="1.56615">
        <ele>1754</ele>
        <time>2014-08-11T12:59:40Z</time>
      </trkpt>
      <trkpt lat="42.68879" lon="1.56611">
        <ele>1755</ele>
        <time>2014-08-11T12:59:55Z</time>
      </trkpt>
      <trkpt lat="42.68879" lon="1.56603">
        <ele>1756</ele>
        <time>2014-08-11T13:00:07Z</time>
      </trkpt>
      <trkpt lat="42.68875" lon="1.56599">
        <ele>1756</ele>
        <time>2014-08-11T13:00:19Z</time>
      </trkpt>
      <trkpt lat="42.68873" lon="1.56585">
        <ele>1758</ele>
        <time>2014-08-11T13:00:33Z</time>
      </trkpt>
      <trkpt lat="42.68877" lon="1.56575">
        <ele>1760</ele>
        <time>2014-08-11T13:00:48Z</time>
      </trkpt>
      <trkpt lat="42.68874" lon="1.56571">
        <ele>1762</ele>
        <time>2014-08-11T13:01:00Z</time>
      </trkpt>
      <trkpt lat="42.68871" lon="1.56567">
        <ele>1765</ele>
        <time>2014-08-11T13:01:13Z</time>
      </trkpt>
      <trkpt lat="42.68866" lon="1.5656">
        <ele>1766</ele>
        <time>2014-08-11T13:01:27Z</time>
      </trkpt>
      <trkpt lat="42.68857" lon="1.56557">
        <ele>1767</ele>
        <time>2014-08-11T13:01:40Z</time>
      </trkpt>
      <trkpt lat="42.68853" lon="1.56546">
        <ele>1768</ele>
        <time>2014-08-11T13:01:53Z</time>
      </trkpt>
      <trkpt lat="42.68849" lon="1.56539">
        <ele>1767</ele>
        <time>2014-08-11T13:02:05Z</time>
      </trkpt>
      <trkpt lat="42.68842" lon="1.56528">
        <ele>1768</ele>
        <time>2014-08-11T13:02:17Z</time>
      </trkpt>
      <trkpt lat="42.68832" lon="1.56527">
        <ele>1766</ele>
        <time>2014-08-11T13:02:31Z</time>
      </trkpt>
      <trkpt lat="42.68829" lon="1.5652">
        <ele>1767</ele>
        <time>2014-08-11T13:02:44Z</time>
      </trkpt>
      <trkpt lat="42.6882" lon="1.56517">
        <ele>1768</ele>
        <time>2014-08-11T13:02:57Z</time>
      </trkpt>
      <trkpt lat="42.68813" lon="1.56515">
        <ele>1769</ele>
        <time>2014-08-11T13:03:08Z</time>
      </trkpt>
      <trkpt lat="42.68806" lon="1.56518">
        <ele>1769</ele>
        <time>2014-08-11T13:03:20Z</time>
      </trkpt>
      <trkpt lat="42.688" lon="1.56519">
        <ele>1769</ele>
        <time>2014-08-11T13:03:30Z</time>
      </trkpt>
      <trkpt lat="42.68793" lon="1.56515">
        <ele>1771</ele>
        <time>2014-08-11T13:03:42Z</time>
      </trkpt>
      <trkpt lat="42.68787" lon="1.56518">
        <ele>1773</ele>
        <time>2014-08-11T13:03:56Z</time>
      </trkpt>
      <trkpt lat="42.68783" lon="1.56515">
        <ele>1774</ele>
        <time>2014-08-11T13:04:10Z</time>
      </trkpt>
      <trkpt lat="42.68783" lon="1.56525">
        <ele>1775</ele>
        <time>2014-08-11T13:04:32Z</time>
      </trkpt>
      <trkpt lat="42.68783" lon="1.56534">
        <ele>1776</ele>
        <time>2014-08-11T13:04:45Z</time>
      </trkpt>
      <trkpt lat="42.68775" lon="1.56543">
        <ele>1778</ele>
        <time>2014-08-11T13:05:00Z</time>
      </trkpt>
      <trkpt lat="42.68766" lon="1.56549">
        <ele>1780</ele>
        <time>2014-08-11T13:05:14Z</time>
      </trkpt>
      <trkpt lat="42.68761" lon="1.56551">
        <ele>1781</ele>
        <time>2014-08-11T13:05:27Z</time>
      </trkpt>
      <trkpt lat="42.6876" lon="1.56545">
        <ele>1783</ele>
        <time>2014-08-11T13:05:42Z</time>
      </trkpt>
      <trkpt lat="42.68756" lon="1.56541">
        <ele>1785</ele>
        <time>2014-08-11T13:05:55Z</time>
      </trkpt>
      <trkpt lat="42.6875" lon="1.56546">
        <ele>1787</ele>
        <time>2014-08-11T13:06:11Z</time>
      </trkpt>
      <trkpt lat="42.68746" lon="1.56556">
        <ele>1789</ele>
        <time>2014-08-11T13:06:26Z</time>
      </trkpt>
      <trkpt lat="42.68744" lon="1.56565">
        <ele>1791</ele>
        <time>2014-08-11T13:06:40Z</time>
      </trkpt>
      <trkpt lat="42.68742" lon="1.56574">
        <ele>1792</ele>
        <time>2014-08-11T13:06:55Z</time>
      </trkpt>
      <trkpt lat="42.6874" lon="1.56585">
        <ele>1794</ele>
        <time>2014-08-11T13:07:10Z</time>
      </trkpt>
      <trkpt lat="42.68736" lon="1.56585">
        <ele>1795</ele>
        <time>2014-08-11T13:07:23Z</time>
      </trkpt>
      <trkpt lat="42.68732" lon="1.56582">
        <ele>1797</ele>
        <time>2014-08-11T13:07:39Z</time>
      </trkpt>
      <trkpt lat="42.6873" lon="1.56589">
        <ele>1799</ele>
        <time>2014-08-11T13:07:52Z</time>
      </trkpt>
      <trkpt lat="42.68727" lon="1.56601">
        <ele>1801</ele>
        <time>2014-08-11T13:08:07Z</time>
      </trkpt>
      <trkpt lat="42.68722" lon="1.5661">
        <ele>1803</ele>
        <time>2014-08-11T13:08:22Z</time>
      </trkpt>
      <trkpt lat="42.68719" lon="1.56618">
        <ele>1804</ele>
        <time>2014-08-11T13:08:36Z</time>
      </trkpt>
      <trkpt lat="42.68713" lon="1.56629">
        <ele>1806</ele>
        <time>2014-08-11T13:08:52Z</time>
      </trkpt>
      <trkpt lat="42.68711" lon="1.56635">
        <ele>1808</ele>
        <time>2014-08-11T13:09:07Z</time>
      </trkpt>
      <trkpt lat="42.68707" lon="1.56635">
        <ele>1810</ele>
        <time>2014-08-11T13:09:21Z</time>
      </trkpt>
      <trkpt lat="42.68703" lon="1.56626">
        <ele>1813</ele>
        <time>2014-08-11T13:09:35Z</time>
      </trkpt>
      <trkpt lat="42.68699" lon="1.56622">
        <ele>1814</ele>
        <time>2014-08-11T13:09:49Z</time>
      </trkpt>
      <trkpt lat="42.68699" lon="1.56614">
        <ele>1816</ele>
        <time>2014-08-11T13:10:06Z</time>
      </trkpt>
      <trkpt lat="42.68699" lon="1.56606">
        <ele>1817</ele>
        <time>2014-08-11T13:10:20Z</time>
      </trkpt>
      <trkpt lat="42.68695" lon="1.56605">
        <ele>1819</ele>
        <time>2014-08-11T13:10:31Z</time>
      </trkpt>
      <trkpt lat="42.68689" lon="1.56608">
        <ele>1820</ele>
        <time>2014-08-11T13:10:43Z</time>
      </trkpt>
      <trkpt lat="42.6869" lon="1.56603">
        <ele>1823</ele>
        <time>2014-08-11T13:10:59Z</time>
      </trkpt>
      <trkpt lat="42.68687" lon="1.56593">
        <ele>1826</ele>
        <time>2014-08-11T13:11:14Z</time>
      </trkpt>
      <trkpt lat="42.68688" lon="1.56581">
        <ele>1827</ele>
        <time>2014-08-11T13:11:29Z</time>
      </trkpt>
      <trkpt lat="42.68685" lon="1.56572">
        <ele>1829</ele>
        <time>2014-08-11T13:11:41Z</time>
      </trkpt>
      <trkpt lat="42.68677" lon="1.56568">
        <ele>1830</ele>
        <time>2014-08-11T13:11:53Z</time>
      </trkpt>
      <trkpt lat="42.68675" lon="1.56559">
        <ele>1831</ele>
        <time>2014-08-11T13:12:06Z</time>
      </trkpt>
      <trkpt lat="42.6867" lon="1.56554">
        <ele>1833</ele>
        <time>2014-08-11T13:12:20Z</time>
      </trkpt>
      <trkpt lat="42.68666" lon="1.56547">
        <ele>1835</ele>
        <time>2014-08-11T13:12:34Z</time>
      </trkpt>
      <trkpt lat="42.68664" lon="1.56541">
        <ele>1836</ele>
        <time>2014-08-11T13:12:47Z</time>
      </trkpt>
      <trkpt lat="42.68653" lon="1.56536">
        <ele>1838</ele>
        <time>2014-08-11T13:13:04Z</time>
      </trkpt>
      <trkpt lat="42.68649" lon="1.56531">
        <ele>1840</ele>
        <time>2014-08-11T13:13:16Z</time>
      </trkpt>
      <trkpt lat="42.68643" lon="1.56527">
        <ele>1841</ele>
        <time>2014-08-11T13:13:28Z</time>
      </trkpt>
      <trkpt lat="42.68638" lon="1.5652">
        <ele>1843</ele>
        <time>2014-08-11T13:13:43Z</time>
      </trkpt>
      <trkpt lat="42.68637" lon="1.56508">
        <ele>1845</ele>
        <time>2014-08-11T13:14:00Z</time>
      </trkpt>
      <trkpt lat="42.68635" lon="1.56503">
        <ele>1847</ele>
        <time>2014-08-11T13:14:12Z</time>
      </trkpt>
      <trkpt lat="42.68631" lon="1.56497">
        <ele>1848</ele>
        <time>2014-08-11T13:14:25Z</time>
      </trkpt>
      <trkpt lat="42.68624" lon="1.56488">
        <ele>1851</ele>
        <time>2014-08-11T13:14:41Z</time>
      </trkpt>
      <trkpt lat="42.68619" lon="1.56483">
        <ele>1851</ele>
        <time>2014-08-11T13:14:54Z</time>
      </trkpt>
      <trkpt lat="42.68618" lon="1.5648">
        <ele>1853</ele>
        <time>2014-08-11T13:15:00Z</time>
      </trkpt>
      <trkpt lat="42.68611" lon="1.56472">
        <ele>1855</ele>
        <time>2014-08-11T13:15:14Z</time>
      </trkpt>
      <trkpt lat="42.68605" lon="1.56466">
        <ele>1855</ele>
        <time>2014-08-11T13:15:30Z</time>
      </trkpt>
      <trkpt lat="42.686" lon="1.56463">
        <ele>1857</ele>
        <time>2014-08-11T13:15:44Z</time>
      </trkpt>
      <trkpt lat="42.68597" lon="1.56458">
        <ele>1859</ele>
        <time>2014-08-11T13:15:58Z</time>
      </trkpt>
      <trkpt lat="42.68593" lon="1.56453">
        <ele>1861</ele>
        <time>2014-08-11T13:16:12Z</time>
      </trkpt>
      <trkpt lat="42.68586" lon="1.56451">
        <ele>1863</ele>
        <time>2014-08-11T13:16:25Z</time>
      </trkpt>
      <trkpt lat="42.6858" lon="1.56446">
        <ele>1864</ele>
        <time>2014-08-11T13:16:38Z</time>
      </trkpt>
      <trkpt lat="42.68573" lon="1.56435">
        <ele>1865</ele>
        <time>2014-08-11T13:16:53Z</time>
      </trkpt>
      <trkpt lat="42.68569" lon="1.56426">
        <ele>1867</ele>
        <time>2014-08-11T13:17:06Z</time>
      </trkpt>
      <trkpt lat="42.68564" lon="1.56418">
        <ele>1868</ele>
        <time>2014-08-11T13:17:22Z</time>
      </trkpt>
      <trkpt lat="42.68561" lon="1.5641">
        <ele>1870</ele>
        <time>2014-08-11T13:17:34Z</time>
      </trkpt>
      <trkpt lat="42.68559" lon="1.56399">
        <ele>1871</ele>
        <time>2014-08-11T13:17:47Z</time>
      </trkpt>
      <trkpt lat="42.68554" lon="1.56392">
        <ele>1874</ele>
        <time>2014-08-11T13:18:03Z</time>
      </trkpt>
      <trkpt lat="42.68548" lon="1.56381">
        <ele>1877</ele>
        <time>2014-08-11T13:18:19Z</time>
      </trkpt>
      <trkpt lat="42.68542" lon="1.56371">
        <ele>1879</ele>
        <time>2014-08-11T13:18:36Z</time>
      </trkpt>
      <trkpt lat="42.68539" lon="1.56361">
        <ele>1881</ele>
        <time>2014-08-11T13:18:51Z</time>
      </trkpt>
      <trkpt lat="42.68537" lon="1.56352">
        <ele>1883</ele>
        <time>2014-08-11T13:19:06Z</time>
      </trkpt>
      <trkpt lat="42.68538" lon="1.56345">
        <ele>1885</ele>
        <time>2014-08-11T13:19:18Z</time>
      </trkpt>
      <trkpt lat="42.68535" lon="1.56336">
        <ele>1885</ele>
        <time>2014-08-11T13:19:32Z</time>
      </trkpt>
      <trkpt lat="42.68528" lon="1.56332">
        <ele>1885</ele>
        <time>2014-08-11T13:19:46Z</time>
      </trkpt>
      <trkpt lat="42.68526" lon="1.56329">
        <ele>1885</ele>
        <time>2014-08-11T13:19:50Z</time>
      </trkpt>
      <trkpt lat="42.68522" lon="1.56322">
        <ele>1885</ele>
        <time>2014-08-11T13:20:05Z</time>
      </trkpt>
      <trkpt lat="42.68519" lon="1.56314">
        <ele>1885</ele>
        <time>2014-08-11T13:20:28Z</time>
      </trkpt>
      <trkpt lat="42.6852" lon="1.56313">
        <ele>1884</ele>
        <time>2014-08-11T13:20:48Z</time>
      </trkpt>
      <trkpt lat="42.68516" lon="1.56315">
        <ele>1885</ele>
        <time>2014-08-11T13:21:17Z</time>
      </trkpt>
      <trkpt lat="42.68516" lon="1.56314">
        <ele>1885</ele>
        <time>2014-08-11T13:21:40Z</time>
      </trkpt>
      <trkpt lat="42.68517" lon="1.56315">
        <ele>1885</ele>
        <time>2014-08-11T13:21:56Z</time>
      </trkpt>
      <trkpt lat="42.68517" lon="1.56315">
        <ele>1886</ele>
        <time>2014-08-11T13:22:35Z</time>
      </trkpt>
      <trkpt lat="42.68513" lon="1.56317">
        <ele>1886</ele>
        <time>2014-08-11T13:23:10Z</time>
      </trkpt>
      <trkpt lat="42.68517" lon="1.56314">
        <ele>1885</ele>
        <time>2014-08-11T13:23:35Z</time>
      </trkpt>
      <trkpt lat="42.68518" lon="1.56313">
        <ele>1885</ele>
        <time>2014-08-11T13:24:05Z</time>
      </trkpt>
      <trkpt lat="42.68518" lon="1.56314">
        <ele>1886</ele>
        <time>2014-08-11T13:24:07Z</time>
      </trkpt>
      <trkpt lat="42.68518" lon="1.56316">
        <ele>1885</ele>
        <time>2014-08-11T13:24:41Z</time>
      </trkpt>
      <trkpt lat="42.68513" lon="1.56306">
        <ele>1885</ele>
        <time>2014-08-11T13:24:55Z</time>
      </trkpt>
      <trkpt lat="42.68505" lon="1.563">
        <ele>1884</ele>
        <time>2014-08-11T13:25:09Z</time>
      </trkpt>
      <trkpt lat="42.685" lon="1.56295">
        <ele>1884</ele>
        <time>2014-08-11T13:25:20Z</time>
      </trkpt>
      <trkpt lat="42.68497" lon="1.56298">
        <ele>1884</ele>
        <time>2014-08-11T13:25:24Z</time>
      </trkpt>
      <trkpt lat="42.68485" lon="1.56296">
        <ele>1885</ele>
        <time>2014-08-11T13:25:38Z</time>
      </trkpt>
      <trkpt lat="42.68477" lon="1.56298">
        <ele>1886</ele>
        <time>2014-08-11T13:25:51Z</time>
      </trkpt>
      <trkpt lat="42.68473" lon="1.56301">
        <ele>1887</ele>
        <time>2014-08-11T13:26:02Z</time>
      </trkpt>
      <trkpt lat="42.68462" lon="1.56305">
        <ele>1888</ele>
        <time>2014-08-11T13:26:15Z</time>
      </trkpt>
      <trkpt lat="42.68455" lon="1.56309">
        <ele>1890</ele>
        <time>2014-08-11T13:26:28Z</time>
      </trkpt>
      <trkpt lat="42.68447" lon="1.56308">
        <ele>1890</ele>
        <time>2014-08-11T13:26:40Z</time>
      </trkpt>
      <trkpt lat="42.68444" lon="1.56299">
        <ele>1892</ele>
        <time>2014-08-11T13:26:54Z</time>
      </trkpt>
      <trkpt lat="42.6844" lon="1.563">
        <ele>1893</ele>
        <time>2014-08-11T13:27:07Z</time>
      </trkpt>
      <trkpt lat="42.68438" lon="1.56298">
        <ele>1894</ele>
        <time>2014-08-11T13:27:10Z</time>
      </trkpt>
      <trkpt lat="42.68426" lon="1.56303">
        <ele>1894</ele>
        <time>2014-08-11T13:27:25Z</time>
      </trkpt>
      <trkpt lat="42.68424" lon="1.56302">
        <ele>1894</ele>
        <time>2014-08-11T13:27:27Z</time>
      </trkpt>
      <trkpt lat="42.68414" lon="1.56293">
        <ele>1894</ele>
        <time>2014-08-11T13:27:41Z</time>
      </trkpt>
      <trkpt lat="42.68406" lon="1.56287">
        <ele>1892</ele>
        <time>2014-08-11T13:27:56Z</time>
      </trkpt>
      <trkpt lat="42.68397" lon="1.56278">
        <ele>1890</ele>
        <time>2014-08-11T13:28:09Z</time>
      </trkpt>
      <trkpt lat="42.68394" lon="1.56275">
        <ele>1890</ele>
        <time>2014-08-11T13:28:12Z</time>
      </trkpt>
      <trkpt lat="42.68383" lon="1.56268">
        <ele>1889</ele>
        <time>2014-08-11T13:28:27Z</time>
      </trkpt>
      <trkpt lat="42.68378" lon="1.56267">
        <ele>1889</ele>
        <time>2014-08-11T13:28:35Z</time>
      </trkpt>
      <trkpt lat="42.68366" lon="1.56261">
        <ele>1889</ele>
        <time>2014-08-11T13:28:50Z</time>
      </trkpt>
      <trkpt lat="42.68361" lon="1.56259">
        <ele>1888</ele>
        <time>2014-08-11T13:28:57Z</time>
      </trkpt>
      <trkpt lat="42.68358" lon="1.56257">
        <ele>1888</ele>
        <time>2014-08-11T13:29:01Z</time>
      </trkpt>
      <trkpt lat="42.68354" lon="1.56262">
        <ele>1888</ele>
        <time>2014-08-11T13:29:13Z</time>
      </trkpt>
      <trkpt lat="42.68351" lon="1.56266">
        <ele>1887</ele>
        <time>2014-08-11T13:29:18Z</time>
      </trkpt>
      <trkpt lat="42.68346" lon="1.56269">
        <ele>1887</ele>
        <time>2014-08-11T13:29:24Z</time>
      </trkpt>
      <trkpt lat="42.68334" lon="1.56267">
        <ele>1887</ele>
        <time>2014-08-11T13:29:39Z</time>
      </trkpt>
      <trkpt lat="42.68334" lon="1.56269">
        <ele>1887</ele>
        <time>2014-08-11T13:29:41Z</time>
      </trkpt>
      <trkpt lat="42.68326" lon="1.56282">
        <ele>1888</ele>
        <time>2014-08-11T13:29:56Z</time>
      </trkpt>
      <trkpt lat="42.68323" lon="1.56283">
        <ele>1888</ele>
        <time>2014-08-11T13:29:59Z</time>
      </trkpt>
      <trkpt lat="42.68313" lon="1.56285">
        <ele>1888</ele>
        <time>2014-08-11T13:30:13Z</time>
      </trkpt>
      <trkpt lat="42.68306" lon="1.56287">
        <ele>1888</ele>
        <time>2014-08-11T13:30:35Z</time>
      </trkpt>
      <trkpt lat="42.68301" lon="1.56293">
        <ele>1887</ele>
        <time>2014-08-11T13:30:48Z</time>
      </trkpt>
      <trkpt lat="42.68292" lon="1.56298">
        <ele>1887</ele>
        <time>2014-08-11T13:31:01Z</time>
      </trkpt>
      <trkpt lat="42.68285" lon="1.56307">
        <ele>1888</ele>
        <time>2014-08-11T13:31:14Z</time>
      </trkpt>
      <trkpt lat="42.68271" lon="1.56309">
        <ele>1889</ele>
        <time>2014-08-11T13:31:29Z</time>
      </trkpt>
      <trkpt lat="42.68259" lon="1.56307">
        <ele>1888</ele>
        <time>2014-08-11T13:31:43Z</time>
      </trkpt>
      <trkpt lat="42.68248" lon="1.56305">
        <ele>1889</ele>
        <time>2014-08-11T13:31:57Z</time>
      </trkpt>
      <trkpt lat="42.68238" lon="1.56304">
        <ele>1889</ele>
        <time>2014-08-11T13:32:10Z</time>
      </trkpt>
      <trkpt lat="42.68228" lon="1.56309">
        <ele>1889</ele>
        <time>2014-08-11T13:32:25Z</time>
      </trkpt>
      <trkpt lat="42.68219" lon="1.56311">
        <ele>1889</ele>
        <time>2014-08-11T13:32:38Z</time>
      </trkpt>
      <trkpt lat="42.68209" lon="1.56319">
        <ele>1889</ele>
        <time>2014-08-11T13:32:52Z</time>
      </trkpt>
      <trkpt lat="42.68196" lon="1.56327">
        <ele>1889</ele>
        <time>2014-08-11T13:33:06Z</time>
      </trkpt>
      <trkpt lat="42.68194" lon="1.56333">
        <ele>1889</ele>
        <time>2014-08-11T13:33:15Z</time>
      </trkpt>
      <trkpt lat="42.68191" lon="1.56336">
        <ele>1889</ele>
        <time>2014-08-11T13:33:19Z</time>
      </trkpt>
      <trkpt lat="42.6819" lon="1.56339">
        <ele>1889</ele>
        <time>2014-08-11T13:33:21Z</time>
      </trkpt>
      <trkpt lat="42.68182" lon="1.56346">
        <ele>1889</ele>
        <time>2014-08-11T13:33:34Z</time>
      </trkpt>
      <trkpt lat="42.68175" lon="1.56354">
        <ele>1890</ele>
        <time>2014-08-11T13:33:47Z</time>
      </trkpt>
      <trkpt lat="42.68172" lon="1.56361">
        <ele>1889</ele>
        <time>2014-08-11T13:33:59Z</time>
      </trkpt>
      <trkpt lat="42.68173" lon="1.56362">
        <ele>1889</ele>
        <time>2014-08-11T13:34:19Z</time>
      </trkpt>
      <trkpt lat="42.6817" lon="1.56363">
        <ele>1888</ele>
        <time>2014-08-11T13:34:39Z</time>
      </trkpt>
      <trkpt lat="42.68163" lon="1.56368">
        <ele>1889</ele>
        <time>2014-08-11T13:34:54Z</time>
      </trkpt>
      <trkpt lat="42.68158" lon="1.56373">
        <ele>1888</ele>
        <time>2014-08-11T13:35:02Z</time>
      </trkpt>
      <trkpt lat="42.68151" lon="1.56379">
        <ele>1890</ele>
        <time>2014-08-11T13:35:15Z</time>
      </trkpt>
      <trkpt lat="42.68143" lon="1.56388">
        <ele>1889</ele>
        <time>2014-08-11T13:35:27Z</time>
      </trkpt>
      <trkpt lat="42.68134" lon="1.56398">
        <ele>1889</ele>
        <time>2014-08-11T13:35:40Z</time>
      </trkpt>
      <trkpt lat="42.68127" lon="1.5641">
        <ele>1889</ele>
        <time>2014-08-11T13:35:54Z</time>
      </trkpt>
      <trkpt lat="42.68127" lon="1.5642">
        <ele>1890</ele>
        <time>2014-08-11T13:36:07Z</time>
      </trkpt>
      <trkpt lat="42.68128" lon="1.56432">
        <ele>1890</ele>
        <time>2014-08-11T13:36:20Z</time>
      </trkpt>
      <trkpt lat="42.68126" lon="1.56449">
        <ele>1889</ele>
        <time>2014-08-11T13:36:35Z</time>
      </trkpt>
      <trkpt lat="42.68122" lon="1.56466">
        <ele>1889</ele>
        <time>2014-08-11T13:36:51Z</time>
      </trkpt>
      <trkpt lat="42.68119" lon="1.56479">
        <ele>1889</ele>
        <time>2014-08-11T13:37:03Z</time>
      </trkpt>
      <trkpt lat="42.68115" lon="1.5649">
        <ele>1890</ele>
        <time>2014-08-11T13:37:16Z</time>
      </trkpt>
      <trkpt lat="42.68116" lon="1.56497">
        <ele>1890</ele>
        <time>2014-08-11T13:37:30Z</time>
      </trkpt>
      <trkpt lat="42.68117" lon="1.56502">
        <ele>1889</ele>
        <time>2014-08-11T13:37:35Z</time>
      </trkpt>
      <trkpt lat="42.68116" lon="1.56514">
        <ele>1888</ele>
        <time>2014-08-11T13:37:45Z</time>
      </trkpt>
      <trkpt lat="42.68112" lon="1.56526">
        <ele>1889</ele>
        <time>2014-08-11T13:37:56Z</time>
      </trkpt>
      <trkpt lat="42.68108" lon="1.56531">
        <ele>1889</ele>
        <time>2014-08-11T13:38:07Z</time>
      </trkpt>
      <trkpt lat="42.68111" lon="1.56537">
        <ele>1889</ele>
        <time>2014-08-11T13:38:22Z</time>
      </trkpt>
      <trkpt lat="42.68108" lon="1.56546">
        <ele>1889</ele>
        <time>2014-08-11T13:38:35Z</time>
      </trkpt>
      <trkpt lat="42.68121" lon="1.56566">
        <ele>1889</ele>
        <time>2014-08-11T13:38:53Z</time>
      </trkpt>
      <trkpt lat="42.68118" lon="1.5658">
        <ele>1889</ele>
        <time>2014-08-11T13:39:13Z</time>
      </trkpt>
      <trkpt lat="42.68112" lon="1.5658">
        <ele>1889</ele>
        <time>2014-08-11T13:39:23Z</time>
      </trkpt>
      <trkpt lat="42.68102" lon="1.56581">
        <ele>1889</ele>
        <time>2014-08-11T13:39:38Z</time>
      </trkpt>
      <trkpt lat="42.68092" lon="1.56586">
        <ele>1890</ele>
        <time>2014-08-11T13:39:51Z</time>
      </trkpt>
      <trkpt lat="42.68084" lon="1.56593">
        <ele>1893</ele>
        <time>2014-08-11T13:40:08Z</time>
      </trkpt>
      <trkpt lat="42.68079" lon="1.56592">
        <ele>1894</ele>
        <time>2014-08-11T13:40:14Z</time>
      </trkpt>
      <trkpt lat="42.6807" lon="1.56592">
        <ele>1895</ele>
        <time>2014-08-11T13:40:29Z</time>
      </trkpt>
      <trkpt lat="42.68065" lon="1.56592">
        <ele>1895</ele>
        <time>2014-08-11T13:40:40Z</time>
      </trkpt>
      <trkpt lat="42.68063" lon="1.56593">
        <ele>1895</ele>
        <time>2014-08-11T13:40:43Z</time>
      </trkpt>
      <trkpt lat="42.68061" lon="1.56597">
        <ele>1895</ele>
        <time>2014-08-11T13:40:49Z</time>
      </trkpt>
      <trkpt lat="42.68056" lon="1.56598">
        <ele>1896</ele>
        <time>2014-08-11T13:40:55Z</time>
      </trkpt>
      <trkpt lat="42.68035" lon="1.56595">
        <ele>1896</ele>
        <time>2014-08-11T13:41:10Z</time>
      </trkpt>
      <trkpt lat="42.68019" lon="1.56591">
        <ele>1898</ele>
        <time>2014-08-11T13:41:24Z</time>
      </trkpt>
      <trkpt lat="42.68006" lon="1.56593">
        <ele>1898</ele>
        <time>2014-08-11T13:41:39Z</time>
      </trkpt>
      <trkpt lat="42.67996" lon="1.56594">
        <ele>1900</ele>
        <time>2014-08-11T13:41:53Z</time>
      </trkpt>
      <trkpt lat="42.67984" lon="1.56598">
        <ele>1900</ele>
        <time>2014-08-11T13:42:08Z</time>
      </trkpt>
      <trkpt lat="42.67974" lon="1.56598">
        <ele>1900</ele>
        <time>2014-08-11T13:42:23Z</time>
      </trkpt>
      <trkpt lat="42.67968" lon="1.56606">
        <ele>1898</ele>
        <time>2014-08-11T13:42:36Z</time>
      </trkpt>
      <trkpt lat="42.67962" lon="1.56615">
        <ele>1895</ele>
        <time>2014-08-11T13:42:50Z</time>
      </trkpt>
      <trkpt lat="42.67952" lon="1.56622">
        <ele>1895</ele>
        <time>2014-08-11T13:43:03Z</time>
      </trkpt>
      <trkpt lat="42.67941" lon="1.56625">
        <ele>1895</ele>
        <time>2014-08-11T13:43:17Z</time>
      </trkpt>
      <trkpt lat="42.67935" lon="1.56627">
        <ele>1894</ele>
        <time>2014-08-11T13:43:22Z</time>
      </trkpt>
      <trkpt lat="42.67931" lon="1.56632">
        <ele>1895</ele>
        <time>2014-08-11T13:43:34Z</time>
      </trkpt>
      <trkpt lat="42.6792" lon="1.56644">
        <ele>1895</ele>
        <time>2014-08-11T13:43:44Z</time>
      </trkpt>
      <trkpt lat="42.6791" lon="1.56647">
        <ele>1895</ele>
        <time>2014-08-11T13:43:58Z</time>
      </trkpt>
      <trkpt lat="42.67906" lon="1.56649">
        <ele>1896</ele>
        <time>2014-08-11T13:44:05Z</time>
      </trkpt>
      <trkpt lat="42.67905" lon="1.56651">
        <ele>1895</ele>
        <time>2014-08-11T13:44:08Z</time>
      </trkpt>
      <trkpt lat="42.67901" lon="1.56653">
        <ele>1896</ele>
        <time>2014-08-11T13:44:12Z</time>
      </trkpt>
      <trkpt lat="42.67897" lon="1.56656">
        <ele>1895</ele>
        <time>2014-08-11T13:44:17Z</time>
      </trkpt>
      <trkpt lat="42.67886" lon="1.56662">
        <ele>1895</ele>
        <time>2014-08-11T13:44:32Z</time>
      </trkpt>
      <trkpt lat="42.67886" lon="1.56663">
        <ele>1896</ele>
        <time>2014-08-11T13:44:33Z</time>
      </trkpt>
      <trkpt lat="42.67883" lon="1.56668">
        <ele>1896</ele>
        <time>2014-08-11T13:44:39Z</time>
      </trkpt>
      <trkpt lat="42.67871" lon="1.56672">
        <ele>1896</ele>
        <time>2014-08-11T13:44:54Z</time>
      </trkpt>
      <trkpt lat="42.67869" lon="1.56675">
        <ele>1896</ele>
        <time>2014-08-11T13:44:57Z</time>
      </trkpt>
      <trkpt lat="42.67869" lon="1.56678">
        <ele>1895</ele>
        <time>2014-08-11T13:44:59Z</time>
      </trkpt>
      <trkpt lat="42.67857" lon="1.56687">
        <ele>1896</ele>
        <time>2014-08-11T13:45:13Z</time>
      </trkpt>
      <trkpt lat="42.67856" lon="1.56692">
        <ele>1895</ele>
        <time>2014-08-11T13:45:24Z</time>
      </trkpt>
      <trkpt lat="42.6786" lon="1.56711">
        <ele>1896</ele>
        <time>2014-08-11T13:45:34Z</time>
      </trkpt>
      <trkpt lat="42.67861" lon="1.56715">
        <ele>1895</ele>
        <time>2014-08-11T13:45:44Z</time>
      </trkpt>
      <trkpt lat="42.67842" lon="1.56717">
        <ele>1896</ele>
        <time>2014-08-11T13:46:01Z</time>
      </trkpt>
      <trkpt lat="42.6783" lon="1.56717">
        <ele>1896</ele>
        <time>2014-08-11T13:46:15Z</time>
      </trkpt>
      <trkpt lat="42.67827" lon="1.56709">
        <ele>1896</ele>
        <time>2014-08-11T13:46:29Z</time>
      </trkpt>
      <trkpt lat="42.67819" lon="1.56711">
        <ele>1897</ele>
        <time>2014-08-11T13:46:44Z</time>
      </trkpt>
      <trkpt lat="42.67818" lon="1.56711">
        <ele>1897</ele>
        <time>2014-08-11T13:46:47Z</time>
      </trkpt>
      <trkpt lat="42.67806" lon="1.56711">
        <ele>1897</ele>
        <time>2014-08-11T13:47:02Z</time>
      </trkpt>
      <trkpt lat="42.67802" lon="1.56717">
        <ele>1897</ele>
        <time>2014-08-11T13:47:19Z</time>
      </trkpt>
      <trkpt lat="42.67795" lon="1.56722">
        <ele>1897</ele>
        <time>2014-08-11T13:47:33Z</time>
      </trkpt>
      <trkpt lat="42.67787" lon="1.56724">
        <ele>1896</ele>
        <time>2014-08-11T13:47:45Z</time>
      </trkpt>
      <trkpt lat="42.67779" lon="1.56727">
        <ele>1896</ele>
        <time>2014-08-11T13:47:58Z</time>
      </trkpt>
      <trkpt lat="42.67776" lon="1.56728">
        <ele>1896</ele>
        <time>2014-08-11T13:48:01Z</time>
      </trkpt>
      <trkpt lat="42.67766" lon="1.5673">
        <ele>1896</ele>
        <time>2014-08-11T13:48:10Z</time>
      </trkpt>
      <trkpt lat="42.67754" lon="1.56735">
        <ele>1896</ele>
        <time>2014-08-11T13:48:26Z</time>
      </trkpt>
      <trkpt lat="42.67748" lon="1.56741">
        <ele>1896</ele>
        <time>2014-08-11T13:48:39Z</time>
      </trkpt>
      <trkpt lat="42.6774" lon="1.56744">
        <ele>1897</ele>
        <time>2014-08-11T13:48:53Z</time>
      </trkpt>
      <trkpt lat="42.67739" lon="1.56756">
        <ele>1895</ele>
        <time>2014-08-11T13:49:08Z</time>
      </trkpt>
      <trkpt lat="42.67737" lon="1.56758">
        <ele>1896</ele>
        <time>2014-08-11T13:49:14Z</time>
      </trkpt>
      <trkpt lat="42.67729" lon="1.56765">
        <ele>1895</ele>
        <time>2014-08-11T13:49:26Z</time>
      </trkpt>
      <trkpt lat="42.67724" lon="1.56768">
        <ele>1896</ele>
        <time>2014-08-11T13:49:34Z</time>
      </trkpt>
      <trkpt lat="42.67713" lon="1.56765">
        <ele>1896</ele>
        <time>2014-08-11T13:49:49Z</time>
      </trkpt>
      <trkpt lat="42.67711" lon="1.56767">
        <ele>1895</ele>
        <time>2014-08-11T13:49:51Z</time>
      </trkpt>
      <trkpt lat="42.677" lon="1.56772">
        <ele>1895</ele>
        <time>2014-08-11T13:50:04Z</time>
      </trkpt>
      <trkpt lat="42.67693" lon="1.56774">
        <ele>1896</ele>
        <time>2014-08-11T13:50:12Z</time>
      </trkpt>
      <trkpt lat="42.6768" lon="1.56778">
        <ele>1896</ele>
        <time>2014-08-11T13:50:26Z</time>
      </trkpt>
      <trkpt lat="42.67678" lon="1.56781">
        <ele>1896</ele>
        <time>2014-08-11T13:50:30Z</time>
      </trkpt>
      <trkpt lat="42.67674" lon="1.56783">
        <ele>1896</ele>
        <time>2014-08-11T13:50:33Z</time>
      </trkpt>
      <trkpt lat="42.67656" lon="1.56788">
        <ele>1896</ele>
        <time>2014-08-11T13:50:49Z</time>
      </trkpt>
      <trkpt lat="42.67651" lon="1.56794">
        <ele>1896</ele>
        <time>2014-08-11T13:51:03Z</time>
      </trkpt>
      <trkpt lat="42.67647" lon="1.56795">
        <ele>1896</ele>
        <time>2014-08-11T13:51:18Z</time>
      </trkpt>
      <trkpt lat="42.67637" lon="1.56784">
        <ele>1898</ele>
        <time>2014-08-11T13:51:34Z</time>
      </trkpt>
      <trkpt lat="42.67634" lon="1.56782">
        <ele>1899</ele>
        <time>2014-08-11T13:51:46Z</time>
      </trkpt>
      <trkpt lat="42.67629" lon="1.56782">
        <ele>1899</ele>
        <time>2014-08-11T13:52:00Z</time>
      </trkpt>
      <trkpt lat="42.67622" lon="1.56784">
        <ele>1900</ele>
        <time>2014-08-11T13:52:12Z</time>
      </trkpt>
      <trkpt lat="42.67617" lon="1.56787">
        <ele>1900</ele>
        <time>2014-08-11T13:52:25Z</time>
      </trkpt>
      <trkpt lat="42.67608" lon="1.56789">
        <ele>1900</ele>
        <time>2014-08-11T13:52:38Z</time>
      </trkpt>
      <trkpt lat="42.67599" lon="1.5679">
        <ele>1901</ele>
        <time>2014-08-11T13:52:51Z</time>
      </trkpt>
      <trkpt lat="42.67598" lon="1.56791">
        <ele>1901</ele>
        <time>2014-08-11T13:52:53Z</time>
      </trkpt>
      <trkpt lat="42.67594" lon="1.56793">
        <ele>1901</ele>
        <time>2014-08-11T13:52:56Z</time>
      </trkpt>
      <trkpt lat="42.67582" lon="1.56797">
        <ele>1900</ele>
        <time>2014-08-11T13:53:10Z</time>
      </trkpt>
      <trkpt lat="42.67573" lon="1.56798">
        <ele>1901</ele>
        <time>2014-08-11T13:53:25Z</time>
      </trkpt>
      <trkpt lat="42.6757" lon="1.56804">
        <ele>1901</ele>
        <time>2014-08-11T13:53:42Z</time>
      </trkpt>
      <trkpt lat="42.67566" lon="1.56809">
        <ele>1901</ele>
        <time>2014-08-11T13:53:49Z</time>
      </trkpt>
      <trkpt lat="42.67557" lon="1.56813">
        <ele>1900</ele>
        <time>2014-08-11T13:54:04Z</time>
      </trkpt>
      <trkpt lat="42.67542" lon="1.56817">
        <ele>1901</ele>
        <time>2014-08-11T13:54:19Z</time>
      </trkpt>
      <trkpt lat="42.67531" lon="1.56822">
        <ele>1902</ele>
        <time>2014-08-11T13:54:31Z</time>
      </trkpt>
      <trkpt lat="42.67517" lon="1.56816">
        <ele>1904</ele>
        <time>2014-08-11T13:54:44Z</time>
      </trkpt>
      <trkpt lat="42.67516" lon="1.56817">
        <ele>1903</ele>
        <time>2014-08-11T13:54:46Z</time>
      </trkpt>
      <trkpt lat="42.67501" lon="1.56816">
        <ele>1902</ele>
        <time>2014-08-11T13:55:01Z</time>
      </trkpt>
      <trkpt lat="42.6749" lon="1.56812">
        <ele>1904</ele>
        <time>2014-08-11T13:55:14Z</time>
      </trkpt>
      <trkpt lat="42.6748" lon="1.56813">
        <ele>1904</ele>
        <time>2014-08-11T13:55:27Z</time>
      </trkpt>
      <trkpt lat="42.67474" lon="1.56814">
        <ele>1905</ele>
        <time>2014-08-11T13:55:41Z</time>
      </trkpt>
      <trkpt lat="42.67463" lon="1.56817">
        <ele>1906</ele>
        <time>2014-08-11T13:55:55Z</time>
      </trkpt>
      <trkpt lat="42.67461" lon="1.56818">
        <ele>1906</ele>
        <time>2014-08-11T13:56:03Z</time>
      </trkpt>
      <trkpt lat="42.67445" lon="1.56816">
        <ele>1908</ele>
        <time>2014-08-11T13:56:18Z</time>
      </trkpt>
      <trkpt lat="42.6743" lon="1.56813">
        <ele>1909</ele>
        <time>2014-08-11T13:56:34Z</time>
      </trkpt>
      <trkpt lat="42.67427" lon="1.56813">
        <ele>1909</ele>
        <time>2014-08-11T13:56:37Z</time>
      </trkpt>
      <trkpt lat="42.67417" lon="1.5682">
        <ele>1909</ele>
        <time>2014-08-11T13:56:50Z</time>
      </trkpt>
      <trkpt lat="42.67402" lon="1.56821">
        <ele>1910</ele>
        <time>2014-08-11T13:57:02Z</time>
      </trkpt>
      <trkpt lat="42.67394" lon="1.56827">
        <ele>1911</ele>
        <time>2014-08-11T13:57:14Z</time>
      </trkpt>
      <trkpt lat="42.6739" lon="1.56831">
        <ele>1912</ele>
        <time>2014-08-11T13:57:20Z</time>
      </trkpt>
      <trkpt lat="42.67385" lon="1.56851">
        <ele>1912</ele>
        <time>2014-08-11T13:57:35Z</time>
      </trkpt>
      <trkpt lat="42.67382" lon="1.56854">
        <ele>1912</ele>
        <time>2014-08-11T13:57:39Z</time>
      </trkpt>
      <trkpt lat="42.67379" lon="1.56864">
        <ele>1912</ele>
        <time>2014-08-11T13:57:47Z</time>
      </trkpt>
      <trkpt lat="42.67368" lon="1.56877">
        <ele>1912</ele>
        <time>2014-08-11T13:58:02Z</time>
      </trkpt>
      <trkpt lat="42.67354" lon="1.56884">
        <ele>1911</ele>
        <time>2014-08-11T13:58:17Z</time>
      </trkpt>
      <trkpt lat="42.67345" lon="1.56887">
        <ele>1911</ele>
        <time>2014-08-11T13:58:29Z</time>
      </trkpt>
      <trkpt lat="42.67338" lon="1.56894">
        <ele>1911</ele>
        <time>2014-08-11T13:58:39Z</time>
      </trkpt>
      <trkpt lat="42.6733" lon="1.56896">
        <ele>1910</ele>
        <time>2014-08-11T13:58:52Z</time>
      </trkpt>
      <trkpt lat="42.67322" lon="1.569">
        <ele>1911</ele>
        <time>2014-08-11T13:59:02Z</time>
      </trkpt>
      <trkpt lat="42.67318" lon="1.56898">
        <ele>1911</ele>
        <time>2014-08-11T13:59:05Z</time>
      </trkpt>
      <trkpt lat="42.67306" lon="1.56902">
        <ele>1911</ele>
        <time>2014-08-11T13:59:19Z</time>
      </trkpt>
      <trkpt lat="42.673" lon="1.56903">
        <ele>1912</ele>
        <time>2014-08-11T13:59:27Z</time>
      </trkpt>
      <trkpt lat="42.67285" lon="1.56903">
        <ele>1911</ele>
        <time>2014-08-11T13:59:40Z</time>
      </trkpt>
      <trkpt lat="42.67275" lon="1.56903">
        <ele>1911</ele>
        <time>2014-08-11T13:59:53Z</time>
      </trkpt>
      <trkpt lat="42.67266" lon="1.56901">
        <ele>1911</ele>
        <time>2014-08-11T14:00:04Z</time>
      </trkpt>
      <trkpt lat="42.67255" lon="1.56899">
        <ele>1912</ele>
        <time>2014-08-11T14:00:17Z</time>
      </trkpt>
      <trkpt lat="42.67245" lon="1.56903">
        <ele>1912</ele>
        <time>2014-08-11T14:00:33Z</time>
      </trkpt>
      <trkpt lat="42.67241" lon="1.5691">
        <ele>1912</ele>
        <time>2014-08-11T14:00:43Z</time>
      </trkpt>
      <trkpt lat="42.67238" lon="1.56914">
        <ele>1912</ele>
        <time>2014-08-11T14:00:49Z</time>
      </trkpt>
      <trkpt lat="42.67231" lon="1.56924">
        <ele>1912</ele>
        <time>2014-08-11T14:01:03Z</time>
      </trkpt>
      <trkpt lat="42.67228" lon="1.56934">
        <ele>1912</ele>
        <time>2014-08-11T14:01:11Z</time>
      </trkpt>
      <trkpt lat="42.6722" lon="1.5694">
        <ele>1912</ele>
        <time>2014-08-11T14:01:20Z</time>
      </trkpt>
      <trkpt lat="42.67213" lon="1.56943">
        <ele>1912</ele>
        <time>2014-08-11T14:01:33Z</time>
      </trkpt>
      <trkpt lat="42.6721" lon="1.56949">
        <ele>1912</ele>
        <time>2014-08-11T14:01:42Z</time>
      </trkpt>
      <trkpt lat="42.67199" lon="1.56957">
        <ele>1913</ele>
        <time>2014-08-11T14:01:57Z</time>
      </trkpt>
      <trkpt lat="42.6719" lon="1.56952">
        <ele>1913</ele>
        <time>2014-08-11T14:02:10Z</time>
      </trkpt>
      <trkpt lat="42.67188" lon="1.56955">
        <ele>1912</ele>
        <time>2014-08-11T14:02:23Z</time>
      </trkpt>
      <trkpt lat="42.67189" lon="1.56947">
        <ele>1914</ele>
        <time>2014-08-11T14:02:31Z</time>
      </trkpt>
      <trkpt lat="42.67183" lon="1.56932">
        <ele>1913</ele>
        <time>2014-08-11T14:02:45Z</time>
      </trkpt>
      <trkpt lat="42.6718" lon="1.56925">
        <ele>1913</ele>
        <time>2014-08-11T14:02:59Z</time>
      </trkpt>
      <trkpt lat="42.6718" lon="1.56925">
        <ele>1913</ele>
        <time>2014-08-11T14:03:00Z</time>
      </trkpt>
      <trkpt lat="42.67175" lon="1.5693">
        <ele>1914</ele>
        <time>2014-08-11T14:03:08Z</time>
      </trkpt>
      <trkpt lat="42.67162" lon="1.56933">
        <ele>1914</ele>
        <time>2014-08-11T14:03:23Z</time>
      </trkpt>
      <trkpt lat="42.67164" lon="1.56937">
        <ele>1914</ele>
        <time>2014-08-11T14:03:36Z</time>
      </trkpt>
      <trkpt lat="42.67154" lon="1.56948">
        <ele>1914</ele>
        <time>2014-08-11T14:03:51Z</time>
      </trkpt>
      <trkpt lat="42.67146" lon="1.56941">
        <ele>1915</ele>
        <time>2014-08-11T14:04:06Z</time>
      </trkpt>
      <trkpt lat="42.67143" lon="1.56947">
        <ele>1914</ele>
        <time>2014-08-11T14:04:18Z</time>
      </trkpt>
      <trkpt lat="42.67144" lon="1.5695">
        <ele>1915</ele>
        <time>2014-08-11T14:04:24Z</time>
      </trkpt>
      <trkpt lat="42.67147" lon="1.56956">
        <ele>1915</ele>
        <time>2014-08-11T14:04:32Z</time>
      </trkpt>
      <trkpt lat="42.67151" lon="1.56963">
        <ele>1916</ele>
        <time>2014-08-11T14:04:40Z</time>
      </trkpt>
      <trkpt lat="42.67151" lon="1.56969">
        <ele>1917</ele>
        <time>2014-08-11T14:04:53Z</time>
      </trkpt>
      <trkpt lat="42.67147" lon="1.56973">
        <ele>1917</ele>
        <time>2014-08-11T14:05:04Z</time>
      </trkpt>
      <trkpt lat="42.67145" lon="1.56983">
        <ele>1918</ele>
        <time>2014-08-11T14:05:18Z</time>
      </trkpt>
      <trkpt lat="42.67146" lon="1.56991">
        <ele>1919</ele>
        <time>2014-08-11T14:05:30Z</time>
      </trkpt>
      <trkpt lat="42.67148" lon="1.56992">
        <ele>1920</ele>
        <time>2014-08-11T14:05:50Z</time>
      </trkpt>
      <trkpt lat="42.67156" lon="1.56997">
        <ele>1919</ele>
        <time>2014-08-11T14:06:17Z</time>
      </trkpt>
      <trkpt lat="42.67152" lon="1.56997">
        <ele>1919</ele>
        <time>2014-08-11T14:06:41Z</time>
      </trkpt>
      <trkpt lat="42.6715" lon="1.56998">
        <ele>1919</ele>
        <time>2014-08-11T14:07:08Z</time>
      </trkpt>
      <trkpt lat="42.67144" lon="1.56992">
        <ele>1920</ele>
        <time>2014-08-11T14:07:33Z</time>
      </trkpt>
      <trkpt lat="42.67144" lon="1.56994">
        <ele>1920</ele>
        <time>2014-08-11T14:08:03Z</time>
      </trkpt>
      <trkpt lat="42.6715" lon="1.56998">
        <ele>1919</ele>
        <time>2014-08-11T14:08:22Z</time>
      </trkpt>
      <trkpt lat="42.67149" lon="1.56997">
        <ele>1920</ele>
        <time>2014-08-11T14:09:02Z</time>
      </trkpt>
      <trkpt lat="42.67139" lon="1.56994">
        <ele>1921</ele>
        <time>2014-08-11T14:09:49Z</time>
      </trkpt>
      <trkpt lat="42.67137" lon="1.56993">
        <ele>1921</ele>
        <time>2014-08-11T14:10:22Z</time>
      </trkpt>
      <trkpt lat="42.67139" lon="1.56996">
        <ele>1922</ele>
        <time>2014-08-11T14:10:50Z</time>
      </trkpt>
      <trkpt lat="42.67141" lon="1.56993">
        <ele>1922</ele>
        <time>2014-08-11T14:11:32Z</time>
      </trkpt>
      <trkpt lat="42.6714" lon="1.56994">
        <ele>1922</ele>
        <time>2014-08-11T14:12:10Z</time>
      </trkpt>
      <trkpt lat="42.67142" lon="1.56995">
        <ele>1922</ele>
        <time>2014-08-11T14:12:44Z</time>
      </trkpt>
      <trkpt lat="42.67142" lon="1.56993">
        <ele>1923</ele>
        <time>2014-08-11T14:13:28Z</time>
      </trkpt>
      <trkpt lat="42.67141" lon="1.56994">
        <ele>1922</ele>
        <time>2014-08-11T14:14:09Z</time>
      </trkpt>
      <trkpt lat="42.67141" lon="1.56993">
        <ele>1922</ele>
        <time>2014-08-11T14:14:46Z</time>
      </trkpt>
      <trkpt lat="42.67143" lon="1.56995">
        <ele>1923</ele>
        <time>2014-08-11T14:15:28Z</time>
      </trkpt>
      <trkpt lat="42.67144" lon="1.56998">
        <ele>1923</ele>
        <time>2014-08-11T14:16:06Z</time>
      </trkpt>
      <trkpt lat="42.67142" lon="1.56996">
        <ele>1923</ele>
        <time>2014-08-11T14:16:41Z</time>
      </trkpt>
      <trkpt lat="42.67143" lon="1.56994">
        <ele>1924</ele>
        <time>2014-08-11T14:17:22Z</time>
      </trkpt>
      <trkpt lat="42.67145" lon="1.56995">
        <ele>1924</ele>
        <time>2014-08-11T14:18:04Z</time>
      </trkpt>
      <trkpt lat="42.67145" lon="1.56996">
        <ele>1924</ele>
        <time>2014-08-11T14:18:37Z</time>
      </trkpt>
      <trkpt lat="42.67139" lon="1.56995">
        <ele>1925</ele>
        <time>2014-08-11T14:19:20Z</time>
      </trkpt>
      <trkpt lat="42.67136" lon="1.56993">
        <ele>1926</ele>
        <time>2014-08-11T14:20:02Z</time>
      </trkpt>
      <trkpt lat="42.67135" lon="1.56991">
        <ele>1926</ele>
        <time>2014-08-11T14:20:47Z</time>
      </trkpt>
      <trkpt lat="42.67137" lon="1.56994">
        <ele>1926</ele>
        <time>2014-08-11T14:21:31Z</time>
      </trkpt>
      <trkpt lat="42.6714" lon="1.56994">
        <ele>1926</ele>
        <time>2014-08-11T14:22:16Z</time>
      </trkpt>
      <trkpt lat="42.6714" lon="1.56994">
        <ele>1926</ele>
        <time>2014-08-11T14:23:06Z</time>
      </trkpt>
      <trkpt lat="42.67147" lon="1.56994">
        <ele>1926</ele>
        <time>2014-08-11T14:23:39Z</time>
      </trkpt>
    </trkseg>
  </trk>
</gpx>